<?xml version="1.0" encoding="UTF-8" standalone="no" ?>
<gpx xmlns="http://www.topografix.com/GPX/1/1" xmlns:xsi="http://www.w3.org/2001/XMLSchema-instance" xsi:schemaLocation="http://www.topografix.com/GPX/1/1 http://www.topografix.com/GPX/1/1/gpx.xsd" version="1.1" creator="VisuGPX - https://www.visugpx.com">
  <metadata>
    <name>Loisirs &amp;amp; Découvertes à Celles 24600</name>
    <desc><![CDATA[Promenades sur la commune de Celles 24600]]></desc>
  </metadata>
  <trk>
    <name><![CDATA[Tracé 6 sept. 2015 09:24:01 CELLES]]></name>
    <trkseg>
      <trkpt lat="45.29783" lon="0.41463">
        <ele>104</ele>
        <time>2015-09-06T07:24:01Z</time>
      </trkpt>
      <trkpt lat="45.29782" lon="0.41456">
        <ele>93</ele>
        <time>2015-09-06T07:24:15Z</time>
      </trkpt>
      <trkpt lat="45.29782" lon="0.41456">
        <ele>93</ele>
        <time>2015-09-06T07:24:16Z</time>
      </trkpt>
      <trkpt lat="45.29781" lon="0.41456">
        <ele>92</ele>
        <time>2015-09-06T07:24:17Z</time>
      </trkpt>
      <trkpt lat="45.29789" lon="0.41458">
        <ele>98</ele>
        <time>2015-09-06T07:24:26Z</time>
      </trkpt>
      <trkpt lat="45.29793" lon="0.41467">
        <ele>101</ele>
        <time>2015-09-06T07:24:56Z</time>
      </trkpt>
      <trkpt lat="45.29799" lon="0.41474">
        <ele>101</ele>
        <time>2015-09-06T07:25:01Z</time>
      </trkpt>
      <trkpt lat="45.29808" lon="0.41476">
        <ele>96</ele>
        <time>2015-09-06T07:25:07Z</time>
      </trkpt>
      <trkpt lat="45.29815" lon="0.41479">
        <ele>101</ele>
        <time>2015-09-06T07:25:21Z</time>
      </trkpt>
      <trkpt lat="45.29819" lon="0.41489">
        <ele>99</ele>
        <time>2015-09-06T07:25:27Z</time>
      </trkpt>
      <trkpt lat="45.29823" lon="0.41498">
        <ele>98</ele>
        <time>2015-09-06T07:25:33Z</time>
      </trkpt>
      <trkpt lat="45.29829" lon="0.41507">
        <ele>98</ele>
        <time>2015-09-06T07:25:39Z</time>
      </trkpt>
      <trkpt lat="45.29833" lon="0.41518">
        <ele>98</ele>
        <time>2015-09-06T07:25:47Z</time>
      </trkpt>
      <trkpt lat="45.29838" lon="0.41528">
        <ele>98</ele>
        <time>2015-09-06T07:25:54Z</time>
      </trkpt>
      <trkpt lat="45.29844" lon="0.41538">
        <ele>100</ele>
        <time>2015-09-06T07:26:02Z</time>
      </trkpt>
      <trkpt lat="45.29849" lon="0.41547">
        <ele>100</ele>
        <time>2015-09-06T07:26:09Z</time>
      </trkpt>
      <trkpt lat="45.29853" lon="0.41558">
        <ele>98</ele>
        <time>2015-09-06T07:26:16Z</time>
      </trkpt>
      <trkpt lat="45.29857" lon="0.41567">
        <ele>98</ele>
        <time>2015-09-06T07:26:22Z</time>
      </trkpt>
      <trkpt lat="45.29859" lon="0.41579">
        <ele>98</ele>
        <time>2015-09-06T07:26:29Z</time>
      </trkpt>
      <trkpt lat="45.29865" lon="0.41587">
        <ele>100</ele>
        <time>2015-09-06T07:26:36Z</time>
      </trkpt>
      <trkpt lat="45.2987" lon="0.41597">
        <ele>101</ele>
        <time>2015-09-06T07:26:44Z</time>
      </trkpt>
      <trkpt lat="45.29875" lon="0.41607">
        <ele>101</ele>
        <time>2015-09-06T07:26:52Z</time>
      </trkpt>
      <trkpt lat="45.29881" lon="0.41616">
        <ele>101</ele>
        <time>2015-09-06T07:26:58Z</time>
      </trkpt>
      <trkpt lat="45.29888" lon="0.41622">
        <ele>99</ele>
        <time>2015-09-06T07:27:06Z</time>
      </trkpt>
      <trkpt lat="45.29892" lon="0.41634">
        <ele>99</ele>
        <time>2015-09-06T07:27:14Z</time>
      </trkpt>
      <trkpt lat="45.29896" lon="0.41644">
        <ele>101</ele>
        <time>2015-09-06T07:27:22Z</time>
      </trkpt>
      <trkpt lat="45.299" lon="0.41654">
        <ele>100</ele>
        <time>2015-09-06T07:27:28Z</time>
      </trkpt>
      <trkpt lat="45.29905" lon="0.41664">
        <ele>101</ele>
        <time>2015-09-06T07:27:36Z</time>
      </trkpt>
      <trkpt lat="45.2991" lon="0.41674">
        <ele>101</ele>
        <time>2015-09-06T07:27:42Z</time>
      </trkpt>
      <trkpt lat="45.29915" lon="0.41683">
        <ele>101</ele>
        <time>2015-09-06T07:27:49Z</time>
      </trkpt>
      <trkpt lat="45.29921" lon="0.41691">
        <ele>99</ele>
        <time>2015-09-06T07:27:57Z</time>
      </trkpt>
      <trkpt lat="45.29926" lon="0.417">
        <ele>101</ele>
        <time>2015-09-06T07:28:04Z</time>
      </trkpt>
      <trkpt lat="45.29932" lon="0.41709">
        <ele>100</ele>
        <time>2015-09-06T07:28:11Z</time>
      </trkpt>
      <trkpt lat="45.29936" lon="0.41719">
        <ele>100</ele>
        <time>2015-09-06T07:28:17Z</time>
      </trkpt>
      <trkpt lat="45.29943" lon="0.41723">
        <ele>98</ele>
        <time>2015-09-06T07:28:24Z</time>
      </trkpt>
      <trkpt lat="45.29951" lon="0.4172">
        <ele>98</ele>
        <time>2015-09-06T07:28:31Z</time>
      </trkpt>
      <trkpt lat="45.29957" lon="0.41713">
        <ele>98</ele>
        <time>2015-09-06T07:28:37Z</time>
      </trkpt>
      <trkpt lat="45.29963" lon="0.41705">
        <ele>99</ele>
        <time>2015-09-06T07:28:43Z</time>
      </trkpt>
      <trkpt lat="45.29969" lon="0.41698">
        <ele>100</ele>
        <time>2015-09-06T07:28:49Z</time>
      </trkpt>
      <trkpt lat="45.29975" lon="0.4169">
        <ele>99</ele>
        <time>2015-09-06T07:28:55Z</time>
      </trkpt>
      <trkpt lat="45.29999" lon="0.41666">
        <ele>117</ele>
        <time>2015-09-06T07:29:22Z</time>
      </trkpt>
      <trkpt lat="45.30004" lon="0.41655">
        <ele>103</ele>
        <time>2015-09-06T07:29:28Z</time>
      </trkpt>
      <trkpt lat="45.3001" lon="0.41648">
        <ele>103</ele>
        <time>2015-09-06T07:29:37Z</time>
      </trkpt>
      <trkpt lat="45.30016" lon="0.4164">
        <ele>104</ele>
        <time>2015-09-06T07:29:45Z</time>
      </trkpt>
      <trkpt lat="45.30021" lon="0.41631">
        <ele>103</ele>
        <time>2015-09-06T07:29:50Z</time>
      </trkpt>
      <trkpt lat="45.30026" lon="0.41622">
        <ele>104</ele>
        <time>2015-09-06T07:29:54Z</time>
      </trkpt>
      <trkpt lat="45.30032" lon="0.41612">
        <ele>105</ele>
        <time>2015-09-06T07:29:59Z</time>
      </trkpt>
      <trkpt lat="45.30037" lon="0.41604">
        <ele>108</ele>
        <time>2015-09-06T07:30:06Z</time>
      </trkpt>
      <trkpt lat="45.30044" lon="0.41594">
        <ele>111</ele>
        <time>2015-09-06T07:30:10Z</time>
      </trkpt>
      <trkpt lat="45.30048" lon="0.41583">
        <ele>112</ele>
        <time>2015-09-06T07:30:15Z</time>
      </trkpt>
      <trkpt lat="45.30052" lon="0.41574">
        <ele>114</ele>
        <time>2015-09-06T07:30:20Z</time>
      </trkpt>
      <trkpt lat="45.30055" lon="0.41564">
        <ele>114</ele>
        <time>2015-09-06T07:30:24Z</time>
      </trkpt>
      <trkpt lat="45.3006" lon="0.41554">
        <ele>116</ele>
        <time>2015-09-06T07:30:29Z</time>
      </trkpt>
      <trkpt lat="45.30065" lon="0.41544">
        <ele>118</ele>
        <time>2015-09-06T07:30:35Z</time>
      </trkpt>
      <trkpt lat="45.3007" lon="0.41536">
        <ele>121</ele>
        <time>2015-09-06T07:30:39Z</time>
      </trkpt>
      <trkpt lat="45.30075" lon="0.41527">
        <ele>121</ele>
        <time>2015-09-06T07:30:45Z</time>
      </trkpt>
      <trkpt lat="45.30078" lon="0.41516">
        <ele>119</ele>
        <time>2015-09-06T07:31:01Z</time>
      </trkpt>
      <trkpt lat="45.30083" lon="0.41507">
        <ele>113</ele>
        <time>2015-09-06T07:32:06Z</time>
      </trkpt>
      <trkpt lat="45.30091" lon="0.41503">
        <ele>113</ele>
        <time>2015-09-06T07:32:13Z</time>
      </trkpt>
      <trkpt lat="45.30099" lon="0.415">
        <ele>112</ele>
        <time>2015-09-06T07:32:26Z</time>
      </trkpt>
      <trkpt lat="45.30107" lon="0.41498">
        <ele>115</ele>
        <time>2015-09-06T07:32:39Z</time>
      </trkpt>
      <trkpt lat="45.30116" lon="0.41496">
        <ele>115</ele>
        <time>2015-09-06T07:32:46Z</time>
      </trkpt>
      <trkpt lat="45.30124" lon="0.41495">
        <ele>115</ele>
        <time>2015-09-06T07:32:52Z</time>
      </trkpt>
      <trkpt lat="45.30167" lon="0.41483">
        <ele>118</ele>
        <time>2015-09-06T07:33:21Z</time>
      </trkpt>
      <trkpt lat="45.30176" lon="0.41479">
        <ele>118</ele>
        <time>2015-09-06T07:33:26Z</time>
      </trkpt>
      <trkpt lat="45.30183" lon="0.41471">
        <ele>117</ele>
        <time>2015-09-06T07:33:32Z</time>
      </trkpt>
      <trkpt lat="45.30191" lon="0.41469">
        <ele>118</ele>
        <time>2015-09-06T07:33:37Z</time>
      </trkpt>
      <trkpt lat="45.302" lon="0.41468">
        <ele>117</ele>
        <time>2015-09-06T07:33:42Z</time>
      </trkpt>
      <trkpt lat="45.30208" lon="0.41466">
        <ele>117</ele>
        <time>2015-09-06T07:33:47Z</time>
      </trkpt>
      <trkpt lat="45.30216" lon="0.41466">
        <ele>119</ele>
        <time>2015-09-06T07:33:52Z</time>
      </trkpt>
      <trkpt lat="45.30224" lon="0.41468">
        <ele>118</ele>
        <time>2015-09-06T07:34:01Z</time>
      </trkpt>
      <trkpt lat="45.30232" lon="0.41473">
        <ele>121</ele>
        <time>2015-09-06T07:34:07Z</time>
      </trkpt>
      <trkpt lat="45.30239" lon="0.41477">
        <ele>123</ele>
        <time>2015-09-06T07:34:13Z</time>
      </trkpt>
      <trkpt lat="45.30246" lon="0.41481">
        <ele>127</ele>
        <time>2015-09-06T07:34:18Z</time>
      </trkpt>
      <trkpt lat="45.30254" lon="0.41487">
        <ele>126</ele>
        <time>2015-09-06T07:34:24Z</time>
      </trkpt>
      <trkpt lat="45.30263" lon="0.41489">
        <ele>127</ele>
        <time>2015-09-06T07:34:31Z</time>
      </trkpt>
      <trkpt lat="45.30271" lon="0.41489">
        <ele>123</ele>
        <time>2015-09-06T07:34:37Z</time>
      </trkpt>
      <trkpt lat="45.30279" lon="0.41493">
        <ele>123</ele>
        <time>2015-09-06T07:34:46Z</time>
      </trkpt>
      <trkpt lat="45.30287" lon="0.41499">
        <ele>124</ele>
        <time>2015-09-06T07:34:51Z</time>
      </trkpt>
      <trkpt lat="45.30294" lon="0.41505">
        <ele>125</ele>
        <time>2015-09-06T07:34:56Z</time>
      </trkpt>
      <trkpt lat="45.30302" lon="0.41506">
        <ele>125</ele>
        <time>2015-09-06T07:35:01Z</time>
      </trkpt>
      <trkpt lat="45.30309" lon="0.41512">
        <ele>125</ele>
        <time>2015-09-06T07:35:09Z</time>
      </trkpt>
      <trkpt lat="45.30318" lon="0.41515">
        <ele>124</ele>
        <time>2015-09-06T07:35:17Z</time>
      </trkpt>
      <trkpt lat="45.30326" lon="0.41521">
        <ele>123</ele>
        <time>2015-09-06T07:35:21Z</time>
      </trkpt>
      <trkpt lat="45.30332" lon="0.41527">
        <ele>123</ele>
        <time>2015-09-06T07:35:28Z</time>
      </trkpt>
      <trkpt lat="45.30339" lon="0.41532">
        <ele>122</ele>
        <time>2015-09-06T07:35:35Z</time>
      </trkpt>
      <trkpt lat="45.30347" lon="0.41537">
        <ele>121</ele>
        <time>2015-09-06T07:35:42Z</time>
      </trkpt>
      <trkpt lat="45.30354" lon="0.41543">
        <ele>120</ele>
        <time>2015-09-06T07:35:49Z</time>
      </trkpt>
      <trkpt lat="45.30359" lon="0.4155">
        <ele>121</ele>
        <time>2015-09-06T07:35:56Z</time>
      </trkpt>
      <trkpt lat="45.30366" lon="0.41558">
        <ele>121</ele>
        <time>2015-09-06T07:36:02Z</time>
      </trkpt>
      <trkpt lat="45.30372" lon="0.41565">
        <ele>119</ele>
        <time>2015-09-06T07:36:08Z</time>
      </trkpt>
      <trkpt lat="45.30379" lon="0.41569">
        <ele>119</ele>
        <time>2015-09-06T07:36:14Z</time>
      </trkpt>
      <trkpt lat="45.30387" lon="0.41575">
        <ele>118</ele>
        <time>2015-09-06T07:36:21Z</time>
      </trkpt>
      <trkpt lat="45.30394" lon="0.41581">
        <ele>117</ele>
        <time>2015-09-06T07:36:29Z</time>
      </trkpt>
      <trkpt lat="45.304" lon="0.41588">
        <ele>117</ele>
        <time>2015-09-06T07:36:38Z</time>
      </trkpt>
      <trkpt lat="45.30408" lon="0.41591">
        <ele>120</ele>
        <time>2015-09-06T07:36:47Z</time>
      </trkpt>
      <trkpt lat="45.30415" lon="0.41599">
        <ele>121</ele>
        <time>2015-09-06T07:36:54Z</time>
      </trkpt>
      <trkpt lat="45.30422" lon="0.41604">
        <ele>121</ele>
        <time>2015-09-06T07:37:01Z</time>
      </trkpt>
      <trkpt lat="45.3043" lon="0.41608">
        <ele>120</ele>
        <time>2015-09-06T07:37:07Z</time>
      </trkpt>
      <trkpt lat="45.30438" lon="0.41609">
        <ele>120</ele>
        <time>2015-09-06T07:37:15Z</time>
      </trkpt>
      <trkpt lat="45.30447" lon="0.41608">
        <ele>119</ele>
        <time>2015-09-06T07:37:23Z</time>
      </trkpt>
      <trkpt lat="45.30456" lon="0.41607">
        <ele>119</ele>
        <time>2015-09-06T07:37:30Z</time>
      </trkpt>
      <trkpt lat="45.30464" lon="0.41605">
        <ele>118</ele>
        <time>2015-09-06T07:37:38Z</time>
      </trkpt>
      <trkpt lat="45.30473" lon="0.41602">
        <ele>118</ele>
        <time>2015-09-06T07:37:45Z</time>
      </trkpt>
      <trkpt lat="45.30481" lon="0.416">
        <ele>118</ele>
        <time>2015-09-06T07:37:53Z</time>
      </trkpt>
      <trkpt lat="45.30489" lon="0.41598">
        <ele>118</ele>
        <time>2015-09-06T07:38:00Z</time>
      </trkpt>
      <trkpt lat="45.30498" lon="0.41595">
        <ele>117</ele>
        <time>2015-09-06T07:38:07Z</time>
      </trkpt>
      <trkpt lat="45.30505" lon="0.41592">
        <ele>117</ele>
        <time>2015-09-06T07:38:14Z</time>
      </trkpt>
      <trkpt lat="45.30514" lon="0.41591">
        <ele>118</ele>
        <time>2015-09-06T07:38:21Z</time>
      </trkpt>
      <trkpt lat="45.30522" lon="0.41589">
        <ele>119</ele>
        <time>2015-09-06T07:38:29Z</time>
      </trkpt>
      <trkpt lat="45.3053" lon="0.41587">
        <ele>118</ele>
        <time>2015-09-06T07:38:37Z</time>
      </trkpt>
      <trkpt lat="45.30538" lon="0.41586">
        <ele>119</ele>
        <time>2015-09-06T07:38:44Z</time>
      </trkpt>
      <trkpt lat="45.30547" lon="0.41584">
        <ele>117</ele>
        <time>2015-09-06T07:38:50Z</time>
      </trkpt>
      <trkpt lat="45.30555" lon="0.41582">
        <ele>119</ele>
        <time>2015-09-06T07:38:58Z</time>
      </trkpt>
      <trkpt lat="45.30563" lon="0.41578">
        <ele>116</ele>
        <time>2015-09-06T07:39:05Z</time>
      </trkpt>
      <trkpt lat="45.30571" lon="0.41576">
        <ele>117</ele>
        <time>2015-09-06T07:39:13Z</time>
      </trkpt>
      <trkpt lat="45.3058" lon="0.41575">
        <ele>118</ele>
        <time>2015-09-06T07:39:21Z</time>
      </trkpt>
      <trkpt lat="45.30588" lon="0.41574">
        <ele>119</ele>
        <time>2015-09-06T07:39:29Z</time>
      </trkpt>
      <trkpt lat="45.30596" lon="0.41572">
        <ele>119</ele>
        <time>2015-09-06T07:39:37Z</time>
      </trkpt>
      <trkpt lat="45.30604" lon="0.4157">
        <ele>120</ele>
        <time>2015-09-06T07:39:45Z</time>
      </trkpt>
      <trkpt lat="45.30611" lon="0.41567">
        <ele>122</ele>
        <time>2015-09-06T07:39:55Z</time>
      </trkpt>
      <trkpt lat="45.3062" lon="0.41566">
        <ele>120</ele>
        <time>2015-09-06T07:40:00Z</time>
      </trkpt>
      <trkpt lat="45.30628" lon="0.41564">
        <ele>119</ele>
        <time>2015-09-06T07:40:07Z</time>
      </trkpt>
      <trkpt lat="45.30637" lon="0.41563">
        <ele>121</ele>
        <time>2015-09-06T07:40:15Z</time>
      </trkpt>
      <trkpt lat="45.30643" lon="0.41562">
        <ele>122</ele>
        <time>2015-09-06T07:40:22Z</time>
      </trkpt>
      <trkpt lat="45.30651" lon="0.41558">
        <ele>119</ele>
        <time>2015-09-06T07:40:28Z</time>
      </trkpt>
      <trkpt lat="45.30658" lon="0.41552">
        <ele>120</ele>
        <time>2015-09-06T07:40:36Z</time>
      </trkpt>
      <trkpt lat="45.30666" lon="0.4155">
        <ele>121</ele>
        <time>2015-09-06T07:40:43Z</time>
      </trkpt>
      <trkpt lat="45.30675" lon="0.4155">
        <ele>120</ele>
        <time>2015-09-06T07:40:50Z</time>
      </trkpt>
      <trkpt lat="45.30683" lon="0.41552">
        <ele>119</ele>
        <time>2015-09-06T07:40:58Z</time>
      </trkpt>
      <trkpt lat="45.30691" lon="0.41558">
        <ele>120</ele>
        <time>2015-09-06T07:41:06Z</time>
      </trkpt>
      <trkpt lat="45.30697" lon="0.41567">
        <ele>120</ele>
        <time>2015-09-06T07:41:15Z</time>
      </trkpt>
      <trkpt lat="45.30702" lon="0.41576">
        <ele>120</ele>
        <time>2015-09-06T07:41:23Z</time>
      </trkpt>
      <trkpt lat="45.30708" lon="0.41582">
        <ele>119</ele>
        <time>2015-09-06T07:41:28Z</time>
      </trkpt>
      <trkpt lat="45.30715" lon="0.41587">
        <ele>121</ele>
        <time>2015-09-06T07:41:34Z</time>
      </trkpt>
      <trkpt lat="45.30722" lon="0.41593">
        <ele>120</ele>
        <time>2015-09-06T07:41:41Z</time>
      </trkpt>
      <trkpt lat="45.3073" lon="0.41598">
        <ele>120</ele>
        <time>2015-09-06T07:41:47Z</time>
      </trkpt>
      <trkpt lat="45.30737" lon="0.41605">
        <ele>121</ele>
        <time>2015-09-06T07:41:54Z</time>
      </trkpt>
      <trkpt lat="45.30742" lon="0.41614">
        <ele>120</ele>
        <time>2015-09-06T07:42:01Z</time>
      </trkpt>
      <trkpt lat="45.30745" lon="0.41626">
        <ele>120</ele>
        <time>2015-09-06T07:42:08Z</time>
      </trkpt>
      <trkpt lat="45.3075" lon="0.41637">
        <ele>121</ele>
        <time>2015-09-06T07:42:16Z</time>
      </trkpt>
      <trkpt lat="45.30753" lon="0.41647">
        <ele>119</ele>
        <time>2015-09-06T07:42:23Z</time>
      </trkpt>
      <trkpt lat="45.30758" lon="0.41658">
        <ele>121</ele>
        <time>2015-09-06T07:42:31Z</time>
      </trkpt>
      <trkpt lat="45.30762" lon="0.41667">
        <ele>121</ele>
        <time>2015-09-06T07:42:38Z</time>
      </trkpt>
      <trkpt lat="45.30767" lon="0.41677">
        <ele>121</ele>
        <time>2015-09-06T07:42:43Z</time>
      </trkpt>
      <trkpt lat="45.30774" lon="0.41684">
        <ele>121</ele>
        <time>2015-09-06T07:42:50Z</time>
      </trkpt>
      <trkpt lat="45.30781" lon="0.41692">
        <ele>120</ele>
        <time>2015-09-06T07:42:56Z</time>
      </trkpt>
      <trkpt lat="45.30785" lon="0.41702">
        <ele>119</ele>
        <time>2015-09-06T07:43:03Z</time>
      </trkpt>
      <trkpt lat="45.30791" lon="0.41709">
        <ele>121</ele>
        <time>2015-09-06T07:43:09Z</time>
      </trkpt>
      <trkpt lat="45.30798" lon="0.41717">
        <ele>121</ele>
        <time>2015-09-06T07:43:16Z</time>
      </trkpt>
      <trkpt lat="45.30803" lon="0.41728">
        <ele>122</ele>
        <time>2015-09-06T07:43:23Z</time>
      </trkpt>
      <trkpt lat="45.30809" lon="0.41737">
        <ele>121</ele>
        <time>2015-09-06T07:43:31Z</time>
      </trkpt>
      <trkpt lat="45.30815" lon="0.41744">
        <ele>122</ele>
        <time>2015-09-06T07:43:38Z</time>
      </trkpt>
      <trkpt lat="45.30822" lon="0.4175">
        <ele>123</ele>
        <time>2015-09-06T07:43:45Z</time>
      </trkpt>
      <trkpt lat="45.3083" lon="0.41756">
        <ele>123</ele>
        <time>2015-09-06T07:43:51Z</time>
      </trkpt>
      <trkpt lat="45.30836" lon="0.41764">
        <ele>126</ele>
        <time>2015-09-06T07:43:59Z</time>
      </trkpt>
      <trkpt lat="45.30843" lon="0.41772">
        <ele>124</ele>
        <time>2015-09-06T07:44:06Z</time>
      </trkpt>
      <trkpt lat="45.30846" lon="0.41783">
        <ele>123</ele>
        <time>2015-09-06T07:44:13Z</time>
      </trkpt>
      <trkpt lat="45.30852" lon="0.41789">
        <ele>124</ele>
        <time>2015-09-06T07:44:22Z</time>
      </trkpt>
      <trkpt lat="45.30859" lon="0.41798">
        <ele>124</ele>
        <time>2015-09-06T07:44:27Z</time>
      </trkpt>
      <trkpt lat="45.30867" lon="0.41801">
        <ele>124</ele>
        <time>2015-09-06T07:44:32Z</time>
      </trkpt>
      <trkpt lat="45.30874" lon="0.41808">
        <ele>125</ele>
        <time>2015-09-06T07:44:40Z</time>
      </trkpt>
      <trkpt lat="45.3088" lon="0.41816">
        <ele>125</ele>
        <time>2015-09-06T07:44:46Z</time>
      </trkpt>
      <trkpt lat="45.30885" lon="0.41825">
        <ele>122</ele>
        <time>2015-09-06T07:44:51Z</time>
      </trkpt>
      <trkpt lat="45.30893" lon="0.41832">
        <ele>124</ele>
        <time>2015-09-06T07:45:00Z</time>
      </trkpt>
      <trkpt lat="45.30899" lon="0.4184">
        <ele>123</ele>
        <time>2015-09-06T07:45:07Z</time>
      </trkpt>
      <trkpt lat="45.30906" lon="0.41845">
        <ele>125</ele>
        <time>2015-09-06T07:45:15Z</time>
      </trkpt>
      <trkpt lat="45.30913" lon="0.41852">
        <ele>124</ele>
        <time>2015-09-06T07:45:21Z</time>
      </trkpt>
      <trkpt lat="45.30919" lon="0.41857">
        <ele>125</ele>
        <time>2015-09-06T07:45:28Z</time>
      </trkpt>
      <trkpt lat="45.30928" lon="0.4186">
        <ele>124</ele>
        <time>2015-09-06T07:45:34Z</time>
      </trkpt>
      <trkpt lat="45.30936" lon="0.41861">
        <ele>124</ele>
        <time>2015-09-06T07:45:40Z</time>
      </trkpt>
      <trkpt lat="45.30944" lon="0.41861">
        <ele>123</ele>
        <time>2015-09-06T07:45:45Z</time>
      </trkpt>
      <trkpt lat="45.30951" lon="0.41861">
        <ele>121</ele>
        <time>2015-09-06T07:45:52Z</time>
      </trkpt>
      <trkpt lat="45.30959" lon="0.41863">
        <ele>123</ele>
        <time>2015-09-06T07:45:57Z</time>
      </trkpt>
      <trkpt lat="45.30967" lon="0.41864">
        <ele>123</ele>
        <time>2015-09-06T07:46:02Z</time>
      </trkpt>
      <trkpt lat="45.30975" lon="0.41865">
        <ele>122</ele>
        <time>2015-09-06T07:46:08Z</time>
      </trkpt>
      <trkpt lat="45.30982" lon="0.41869">
        <ele>124</ele>
        <time>2015-09-06T07:46:15Z</time>
      </trkpt>
      <trkpt lat="45.3099" lon="0.41868">
        <ele>123</ele>
        <time>2015-09-06T07:46:20Z</time>
      </trkpt>
      <trkpt lat="45.30997" lon="0.41873">
        <ele>123</ele>
        <time>2015-09-06T07:46:28Z</time>
      </trkpt>
      <trkpt lat="45.31004" lon="0.41875">
        <ele>124</ele>
        <time>2015-09-06T07:46:34Z</time>
      </trkpt>
      <trkpt lat="45.31012" lon="0.4188">
        <ele>125</ele>
        <time>2015-09-06T07:46:40Z</time>
      </trkpt>
      <trkpt lat="45.3102" lon="0.41882">
        <ele>126</ele>
        <time>2015-09-06T07:46:46Z</time>
      </trkpt>
      <trkpt lat="45.31029" lon="0.41885">
        <ele>125</ele>
        <time>2015-09-06T07:46:54Z</time>
      </trkpt>
      <trkpt lat="45.31034" lon="0.41889">
        <ele>126</ele>
        <time>2015-09-06T07:47:00Z</time>
      </trkpt>
      <trkpt lat="45.31042" lon="0.41897">
        <ele>126</ele>
        <time>2015-09-06T07:47:05Z</time>
      </trkpt>
      <trkpt lat="45.31049" lon="0.41902">
        <ele>129</ele>
        <time>2015-09-06T07:47:13Z</time>
      </trkpt>
      <trkpt lat="45.31056" lon="0.41909">
        <ele>129</ele>
        <time>2015-09-06T07:47:21Z</time>
      </trkpt>
      <trkpt lat="45.31062" lon="0.41916">
        <ele>131</ele>
        <time>2015-09-06T07:47:27Z</time>
      </trkpt>
      <trkpt lat="45.3107" lon="0.41921">
        <ele>132</ele>
        <time>2015-09-06T07:47:34Z</time>
      </trkpt>
      <trkpt lat="45.31076" lon="0.41929">
        <ele>132</ele>
        <time>2015-09-06T07:47:42Z</time>
      </trkpt>
      <trkpt lat="45.31083" lon="0.41936">
        <ele>131</ele>
        <time>2015-09-06T07:47:48Z</time>
      </trkpt>
      <trkpt lat="45.3109" lon="0.41944">
        <ele>130</ele>
        <time>2015-09-06T07:47:54Z</time>
      </trkpt>
      <trkpt lat="45.31096" lon="0.41952">
        <ele>130</ele>
        <time>2015-09-06T07:48:00Z</time>
      </trkpt>
      <trkpt lat="45.31102" lon="0.41962">
        <ele>129</ele>
        <time>2015-09-06T07:48:07Z</time>
      </trkpt>
      <trkpt lat="45.31108" lon="0.4197">
        <ele>129</ele>
        <time>2015-09-06T07:48:13Z</time>
      </trkpt>
      <trkpt lat="45.31114" lon="0.41977">
        <ele>129</ele>
        <time>2015-09-06T07:48:19Z</time>
      </trkpt>
      <trkpt lat="45.31121" lon="0.41983">
        <ele>128</ele>
        <time>2015-09-06T07:48:26Z</time>
      </trkpt>
      <trkpt lat="45.31128" lon="0.41988">
        <ele>127</ele>
        <time>2015-09-06T07:48:32Z</time>
      </trkpt>
      <trkpt lat="45.31135" lon="0.41994">
        <ele>126</ele>
        <time>2015-09-06T07:48:39Z</time>
      </trkpt>
      <trkpt lat="45.31142" lon="0.41999">
        <ele>127</ele>
        <time>2015-09-06T07:48:46Z</time>
      </trkpt>
      <trkpt lat="45.31148" lon="0.42008">
        <ele>129</ele>
        <time>2015-09-06T07:48:54Z</time>
      </trkpt>
      <trkpt lat="45.31156" lon="0.42013">
        <ele>129</ele>
        <time>2015-09-06T07:49:01Z</time>
      </trkpt>
      <trkpt lat="45.31163" lon="0.42018">
        <ele>130</ele>
        <time>2015-09-06T07:49:09Z</time>
      </trkpt>
      <trkpt lat="45.31172" lon="0.4202">
        <ele>127</ele>
        <time>2015-09-06T07:49:16Z</time>
      </trkpt>
      <trkpt lat="45.31179" lon="0.42026">
        <ele>129</ele>
        <time>2015-09-06T07:49:22Z</time>
      </trkpt>
      <trkpt lat="45.31185" lon="0.42028">
        <ele>131</ele>
        <time>2015-09-06T07:49:28Z</time>
      </trkpt>
      <trkpt lat="45.31191" lon="0.42035">
        <ele>131</ele>
        <time>2015-09-06T07:49:33Z</time>
      </trkpt>
      <trkpt lat="45.31197" lon="0.42042">
        <ele>130</ele>
        <time>2015-09-06T07:49:38Z</time>
      </trkpt>
      <trkpt lat="45.31205" lon="0.42048">
        <ele>132</ele>
        <time>2015-09-06T07:49:45Z</time>
      </trkpt>
      <trkpt lat="45.31212" lon="0.42052">
        <ele>132</ele>
        <time>2015-09-06T07:49:52Z</time>
      </trkpt>
      <trkpt lat="45.3122" lon="0.42058">
        <ele>134</ele>
        <time>2015-09-06T07:49:59Z</time>
      </trkpt>
      <trkpt lat="45.31228" lon="0.42061">
        <ele>134</ele>
        <time>2015-09-06T07:50:07Z</time>
      </trkpt>
      <trkpt lat="45.31234" lon="0.42068">
        <ele>135</ele>
        <time>2015-09-06T07:50:14Z</time>
      </trkpt>
      <trkpt lat="45.31242" lon="0.42071">
        <ele>134</ele>
        <time>2015-09-06T07:50:19Z</time>
      </trkpt>
      <trkpt lat="45.31249" lon="0.42079">
        <ele>135</ele>
        <time>2015-09-06T07:50:24Z</time>
      </trkpt>
      <trkpt lat="45.31257" lon="0.42082">
        <ele>135</ele>
        <time>2015-09-06T07:50:31Z</time>
      </trkpt>
      <trkpt lat="45.31265" lon="0.42085">
        <ele>133</ele>
        <time>2015-09-06T07:50:36Z</time>
      </trkpt>
      <trkpt lat="45.31273" lon="0.42087">
        <ele>132</ele>
        <time>2015-09-06T07:50:42Z</time>
      </trkpt>
      <trkpt lat="45.3128" lon="0.42093">
        <ele>132</ele>
        <time>2015-09-06T07:50:49Z</time>
      </trkpt>
      <trkpt lat="45.31289" lon="0.42095">
        <ele>132</ele>
        <time>2015-09-06T07:50:56Z</time>
      </trkpt>
      <trkpt lat="45.31292" lon="0.42105">
        <ele>131</ele>
        <time>2015-09-06T07:51:15Z</time>
      </trkpt>
      <trkpt lat="45.31287" lon="0.42113">
        <ele>132</ele>
        <time>2015-09-06T07:53:05Z</time>
      </trkpt>
      <trkpt lat="45.31282" lon="0.42123">
        <ele>134</ele>
        <time>2015-09-06T07:53:10Z</time>
      </trkpt>
      <trkpt lat="45.3128" lon="0.42135">
        <ele>134</ele>
        <time>2015-09-06T07:53:15Z</time>
      </trkpt>
      <trkpt lat="45.31275" lon="0.42145">
        <ele>134</ele>
        <time>2015-09-06T07:53:20Z</time>
      </trkpt>
      <trkpt lat="45.3127" lon="0.42154">
        <ele>135</ele>
        <time>2015-09-06T07:53:27Z</time>
      </trkpt>
      <trkpt lat="45.31264" lon="0.42163">
        <ele>137</ele>
        <time>2015-09-06T07:53:33Z</time>
      </trkpt>
      <trkpt lat="45.31257" lon="0.42171">
        <ele>139</ele>
        <time>2015-09-06T07:53:38Z</time>
      </trkpt>
      <trkpt lat="45.31252" lon="0.4218">
        <ele>140</ele>
        <time>2015-09-06T07:53:44Z</time>
      </trkpt>
      <trkpt lat="45.31247" lon="0.42188">
        <ele>141</ele>
        <time>2015-09-06T07:53:51Z</time>
      </trkpt>
      <trkpt lat="45.31245" lon="0.42199">
        <ele>143</ele>
        <time>2015-09-06T07:53:58Z</time>
      </trkpt>
      <trkpt lat="45.31244" lon="0.42209">
        <ele>145</ele>
        <time>2015-09-06T07:54:04Z</time>
      </trkpt>
      <trkpt lat="45.31245" lon="0.42221">
        <ele>142</ele>
        <time>2015-09-06T07:54:14Z</time>
      </trkpt>
      <trkpt lat="45.31244" lon="0.42232">
        <ele>150</ele>
        <time>2015-09-06T07:54:51Z</time>
      </trkpt>
      <trkpt lat="45.31243" lon="0.42243">
        <ele>151</ele>
        <time>2015-09-06T07:54:57Z</time>
      </trkpt>
      <trkpt lat="45.31245" lon="0.42255">
        <ele>154</ele>
        <time>2015-09-06T07:55:05Z</time>
      </trkpt>
      <trkpt lat="45.3125" lon="0.42265">
        <ele>157</ele>
        <time>2015-09-06T07:55:13Z</time>
      </trkpt>
      <trkpt lat="45.31254" lon="0.42274">
        <ele>155</ele>
        <time>2015-09-06T07:55:20Z</time>
      </trkpt>
      <trkpt lat="45.31255" lon="0.42286">
        <ele>156</ele>
        <time>2015-09-06T07:55:25Z</time>
      </trkpt>
      <trkpt lat="45.31257" lon="0.42297">
        <ele>163</ele>
        <time>2015-09-06T07:55:37Z</time>
      </trkpt>
      <trkpt lat="45.31254" lon="0.42309">
        <ele>166</ele>
        <time>2015-09-06T07:55:45Z</time>
      </trkpt>
      <trkpt lat="45.31253" lon="0.42319">
        <ele>167</ele>
        <time>2015-09-06T07:55:52Z</time>
      </trkpt>
      <trkpt lat="45.31246" lon="0.42327">
        <ele>175</ele>
        <time>2015-09-06T07:56:04Z</time>
      </trkpt>
      <trkpt lat="45.31243" lon="0.42337">
        <ele>175</ele>
        <time>2015-09-06T07:56:12Z</time>
      </trkpt>
      <trkpt lat="45.3124" lon="0.42348">
        <ele>178</ele>
        <time>2015-09-06T07:56:21Z</time>
      </trkpt>
      <trkpt lat="45.31236" lon="0.42358">
        <ele>179</ele>
        <time>2015-09-06T07:56:28Z</time>
      </trkpt>
      <trkpt lat="45.31235" lon="0.4237">
        <ele>178</ele>
        <time>2015-09-06T07:56:35Z</time>
      </trkpt>
      <trkpt lat="45.31229" lon="0.42379">
        <ele>182</ele>
        <time>2015-09-06T07:56:42Z</time>
      </trkpt>
      <trkpt lat="45.31226" lon="0.4239">
        <ele>185</ele>
        <time>2015-09-06T07:56:50Z</time>
      </trkpt>
      <trkpt lat="45.31225" lon="0.42404">
        <ele>176</ele>
        <time>2015-09-06T07:56:55Z</time>
      </trkpt>
      <trkpt lat="45.3122" lon="0.42414">
        <ele>180</ele>
        <time>2015-09-06T07:57:05Z</time>
      </trkpt>
      <trkpt lat="45.31215" lon="0.42423">
        <ele>179</ele>
        <time>2015-09-06T07:57:11Z</time>
      </trkpt>
      <trkpt lat="45.31212" lon="0.42434">
        <ele>183</ele>
        <time>2015-09-06T07:57:19Z</time>
      </trkpt>
      <trkpt lat="45.31208" lon="0.42444">
        <ele>181</ele>
        <time>2015-09-06T07:57:28Z</time>
      </trkpt>
      <trkpt lat="45.31205" lon="0.42456">
        <ele>173</ele>
        <time>2015-09-06T07:58:11Z</time>
      </trkpt>
      <trkpt lat="45.31197" lon="0.42452">
        <ele>172</ele>
        <time>2015-09-06T08:02:29Z</time>
      </trkpt>
      <trkpt lat="45.31189" lon="0.42448">
        <ele>174</ele>
        <time>2015-09-06T08:02:46Z</time>
      </trkpt>
      <trkpt lat="45.31182" lon="0.42441">
        <ele>177</ele>
        <time>2015-09-06T08:03:03Z</time>
      </trkpt>
      <trkpt lat="45.31175" lon="0.42435">
        <ele>175</ele>
        <time>2015-09-06T08:03:09Z</time>
      </trkpt>
      <trkpt lat="45.31167" lon="0.42429">
        <ele>172</ele>
        <time>2015-09-06T08:03:15Z</time>
      </trkpt>
      <trkpt lat="45.31159" lon="0.42426">
        <ele>173</ele>
        <time>2015-09-06T08:03:20Z</time>
      </trkpt>
      <trkpt lat="45.31151" lon="0.42423">
        <ele>173</ele>
        <time>2015-09-06T08:03:31Z</time>
      </trkpt>
      <trkpt lat="45.31143" lon="0.42419">
        <ele>173</ele>
        <time>2015-09-06T08:03:40Z</time>
      </trkpt>
      <trkpt lat="45.31135" lon="0.42415">
        <ele>173</ele>
        <time>2015-09-06T08:03:50Z</time>
      </trkpt>
      <trkpt lat="45.31126" lon="0.42412">
        <ele>175</ele>
        <time>2015-09-06T08:04:02Z</time>
      </trkpt>
      <trkpt lat="45.3112" lon="0.42412">
        <ele>175</ele>
        <time>2015-09-06T08:04:09Z</time>
      </trkpt>
      <trkpt lat="45.31112" lon="0.42411">
        <ele>175</ele>
        <time>2015-09-06T08:04:14Z</time>
      </trkpt>
      <trkpt lat="45.31104" lon="0.4241">
        <ele>175</ele>
        <time>2015-09-06T08:04:21Z</time>
      </trkpt>
      <trkpt lat="45.31096" lon="0.4241">
        <ele>176</ele>
        <time>2015-09-06T08:04:30Z</time>
      </trkpt>
      <trkpt lat="45.31088" lon="0.42408">
        <ele>177</ele>
        <time>2015-09-06T08:04:39Z</time>
      </trkpt>
      <trkpt lat="45.3108" lon="0.42408">
        <ele>177</ele>
        <time>2015-09-06T08:04:47Z</time>
      </trkpt>
      <trkpt lat="45.31071" lon="0.42407">
        <ele>178</ele>
        <time>2015-09-06T08:04:56Z</time>
      </trkpt>
      <trkpt lat="45.31063" lon="0.42406">
        <ele>177</ele>
        <time>2015-09-06T08:05:05Z</time>
      </trkpt>
      <trkpt lat="45.31055" lon="0.42405">
        <ele>176</ele>
        <time>2015-09-06T08:05:13Z</time>
      </trkpt>
      <trkpt lat="45.31046" lon="0.42403">
        <ele>175</ele>
        <time>2015-09-06T08:05:20Z</time>
      </trkpt>
      <trkpt lat="45.31038" lon="0.42401">
        <ele>176</ele>
        <time>2015-09-06T08:05:28Z</time>
      </trkpt>
      <trkpt lat="45.31031" lon="0.424">
        <ele>176</ele>
        <time>2015-09-06T08:05:37Z</time>
      </trkpt>
      <trkpt lat="45.31022" lon="0.424">
        <ele>176</ele>
        <time>2015-09-06T08:05:45Z</time>
      </trkpt>
      <trkpt lat="45.31014" lon="0.42401">
        <ele>175</ele>
        <time>2015-09-06T08:05:53Z</time>
      </trkpt>
      <trkpt lat="45.31006" lon="0.42406">
        <ele>175</ele>
        <time>2015-09-06T08:06:01Z</time>
      </trkpt>
      <trkpt lat="45.30999" lon="0.42413">
        <ele>175</ele>
        <time>2015-09-06T08:06:10Z</time>
      </trkpt>
      <trkpt lat="45.30993" lon="0.42418">
        <ele>175</ele>
        <time>2015-09-06T08:06:18Z</time>
      </trkpt>
      <trkpt lat="45.30986" lon="0.42425">
        <ele>175</ele>
        <time>2015-09-06T08:06:25Z</time>
      </trkpt>
      <trkpt lat="45.30979" lon="0.42432">
        <ele>175</ele>
        <time>2015-09-06T08:06:34Z</time>
      </trkpt>
      <trkpt lat="45.30973" lon="0.4244">
        <ele>175</ele>
        <time>2015-09-06T08:06:42Z</time>
      </trkpt>
      <trkpt lat="45.30968" lon="0.4245">
        <ele>174</ele>
        <time>2015-09-06T08:06:50Z</time>
      </trkpt>
      <trkpt lat="45.30964" lon="0.42461">
        <ele>172</ele>
        <time>2015-09-06T08:07:00Z</time>
      </trkpt>
      <trkpt lat="45.30959" lon="0.4247">
        <ele>172</ele>
        <time>2015-09-06T08:07:07Z</time>
      </trkpt>
      <trkpt lat="45.30956" lon="0.42481">
        <ele>170</ele>
        <time>2015-09-06T08:07:16Z</time>
      </trkpt>
      <trkpt lat="45.30952" lon="0.42491">
        <ele>169</ele>
        <time>2015-09-06T08:07:24Z</time>
      </trkpt>
      <trkpt lat="45.30948" lon="0.42502">
        <ele>169</ele>
        <time>2015-09-06T08:07:33Z</time>
      </trkpt>
      <trkpt lat="45.30943" lon="0.42512">
        <ele>168</ele>
        <time>2015-09-06T08:07:42Z</time>
      </trkpt>
      <trkpt lat="45.30938" lon="0.42522">
        <ele>166</ele>
        <time>2015-09-06T08:07:51Z</time>
      </trkpt>
      <trkpt lat="45.30932" lon="0.4253">
        <ele>166</ele>
        <time>2015-09-06T08:07:59Z</time>
      </trkpt>
      <trkpt lat="45.30926" lon="0.42538">
        <ele>165</ele>
        <time>2015-09-06T08:08:07Z</time>
      </trkpt>
      <trkpt lat="45.3092" lon="0.42546">
        <ele>164</ele>
        <time>2015-09-06T08:08:16Z</time>
      </trkpt>
      <trkpt lat="45.30914" lon="0.42554">
        <ele>163</ele>
        <time>2015-09-06T08:08:25Z</time>
      </trkpt>
      <trkpt lat="45.30908" lon="0.42563">
        <ele>162</ele>
        <time>2015-09-06T08:08:35Z</time>
      </trkpt>
      <trkpt lat="45.309" lon="0.42569">
        <ele>161</ele>
        <time>2015-09-06T08:08:47Z</time>
      </trkpt>
      <trkpt lat="45.30894" lon="0.42576">
        <ele>161</ele>
        <time>2015-09-06T08:08:56Z</time>
      </trkpt>
      <trkpt lat="45.30887" lon="0.42585">
        <ele>159</ele>
        <time>2015-09-06T08:09:11Z</time>
      </trkpt>
      <trkpt lat="45.30881" lon="0.42593">
        <ele>158</ele>
        <time>2015-09-06T08:09:15Z</time>
      </trkpt>
      <trkpt lat="45.30877" lon="0.42603">
        <ele>158</ele>
        <time>2015-09-06T08:09:26Z</time>
      </trkpt>
      <trkpt lat="45.30872" lon="0.42612">
        <ele>155</ele>
        <time>2015-09-06T08:09:36Z</time>
      </trkpt>
      <trkpt lat="45.30865" lon="0.4262">
        <ele>156</ele>
        <time>2015-09-06T08:09:46Z</time>
      </trkpt>
      <trkpt lat="45.3086" lon="0.42627">
        <ele>150</ele>
        <time>2015-09-06T08:09:54Z</time>
      </trkpt>
      <trkpt lat="45.30855" lon="0.42636">
        <ele>152</ele>
        <time>2015-09-06T08:09:59Z</time>
      </trkpt>
      <trkpt lat="45.30849" lon="0.42646">
        <ele>152</ele>
        <time>2015-09-06T08:10:12Z</time>
      </trkpt>
      <trkpt lat="45.30844" lon="0.42655">
        <ele>149</ele>
        <time>2015-09-06T08:10:20Z</time>
      </trkpt>
      <trkpt lat="45.30838" lon="0.42663">
        <ele>146</ele>
        <time>2015-09-06T08:10:31Z</time>
      </trkpt>
      <trkpt lat="45.30833" lon="0.42673">
        <ele>145</ele>
        <time>2015-09-06T08:10:43Z</time>
      </trkpt>
      <trkpt lat="45.30826" lon="0.42678">
        <ele>143</ele>
        <time>2015-09-06T08:10:51Z</time>
      </trkpt>
      <trkpt lat="45.30821" lon="0.42687">
        <ele>139</ele>
        <time>2015-09-06T08:11:02Z</time>
      </trkpt>
      <trkpt lat="45.30815" lon="0.42697">
        <ele>141</ele>
        <time>2015-09-06T08:11:14Z</time>
      </trkpt>
      <trkpt lat="45.30809" lon="0.42705">
        <ele>141</ele>
        <time>2015-09-06T08:11:23Z</time>
      </trkpt>
      <trkpt lat="45.30804" lon="0.42714">
        <ele>138</ele>
        <time>2015-09-06T08:11:32Z</time>
      </trkpt>
      <trkpt lat="45.30797" lon="0.42721">
        <ele>140</ele>
        <time>2015-09-06T08:11:44Z</time>
      </trkpt>
      <trkpt lat="45.30798" lon="0.42733">
        <ele>133</ele>
        <time>2015-09-06T08:11:51Z</time>
      </trkpt>
      <trkpt lat="45.30797" lon="0.42744">
        <ele>129</ele>
        <time>2015-09-06T08:12:00Z</time>
      </trkpt>
      <trkpt lat="45.30779" lon="0.42814">
        <ele>123</ele>
        <time>2015-09-06T08:12:48Z</time>
      </trkpt>
      <trkpt lat="45.30772" lon="0.42821">
        <ele>123</ele>
        <time>2015-09-06T08:12:53Z</time>
      </trkpt>
      <trkpt lat="45.30764" lon="0.42826">
        <ele>123</ele>
        <time>2015-09-06T08:13:01Z</time>
      </trkpt>
      <trkpt lat="45.30758" lon="0.42834">
        <ele>123</ele>
        <time>2015-09-06T08:13:08Z</time>
      </trkpt>
      <trkpt lat="45.30753" lon="0.42843">
        <ele>121</ele>
        <time>2015-09-06T08:13:14Z</time>
      </trkpt>
      <trkpt lat="45.30745" lon="0.42848">
        <ele>122</ele>
        <time>2015-09-06T08:13:22Z</time>
      </trkpt>
      <trkpt lat="45.30737" lon="0.42855">
        <ele>123</ele>
        <time>2015-09-06T08:13:32Z</time>
      </trkpt>
      <trkpt lat="45.30732" lon="0.42863">
        <ele>122</ele>
        <time>2015-09-06T08:13:40Z</time>
      </trkpt>
      <trkpt lat="45.30724" lon="0.42866">
        <ele>123</ele>
        <time>2015-09-06T08:13:45Z</time>
      </trkpt>
      <trkpt lat="45.30717" lon="0.42871">
        <ele>125</ele>
        <time>2015-09-06T08:13:52Z</time>
      </trkpt>
      <trkpt lat="45.3071" lon="0.4288">
        <ele>125</ele>
        <time>2015-09-06T08:14:01Z</time>
      </trkpt>
      <trkpt lat="45.30699" lon="0.42885">
        <ele>123</ele>
        <time>2015-09-06T08:14:05Z</time>
      </trkpt>
      <trkpt lat="45.30692" lon="0.42893">
        <ele>124</ele>
        <time>2015-09-06T08:14:14Z</time>
      </trkpt>
      <trkpt lat="45.30687" lon="0.42903">
        <ele>124</ele>
        <time>2015-09-06T08:14:27Z</time>
      </trkpt>
      <trkpt lat="45.30681" lon="0.42909">
        <ele>122</ele>
        <time>2015-09-06T08:14:45Z</time>
      </trkpt>
      <trkpt lat="45.30673" lon="0.42908">
        <ele>119</ele>
        <time>2015-09-06T08:14:51Z</time>
      </trkpt>
      <trkpt lat="45.30664" lon="0.42906">
        <ele>122</ele>
        <time>2015-09-06T08:14:59Z</time>
      </trkpt>
      <trkpt lat="45.30655" lon="0.42905">
        <ele>121</ele>
        <time>2015-09-06T08:15:09Z</time>
      </trkpt>
      <trkpt lat="45.30648" lon="0.42899">
        <ele>122</ele>
        <time>2015-09-06T08:15:19Z</time>
      </trkpt>
      <trkpt lat="45.3064" lon="0.42897">
        <ele>127</ele>
        <time>2015-09-06T08:15:27Z</time>
      </trkpt>
      <trkpt lat="45.30633" lon="0.42892">
        <ele>128</ele>
        <time>2015-09-06T08:15:34Z</time>
      </trkpt>
      <trkpt lat="45.30625" lon="0.42891">
        <ele>127</ele>
        <time>2015-09-06T08:15:38Z</time>
      </trkpt>
      <trkpt lat="45.30617" lon="0.42889">
        <ele>127</ele>
        <time>2015-09-06T08:15:44Z</time>
      </trkpt>
      <trkpt lat="45.30609" lon="0.42886">
        <ele>125</ele>
        <time>2015-09-06T08:15:51Z</time>
      </trkpt>
      <trkpt lat="45.30602" lon="0.42882">
        <ele>123</ele>
        <time>2015-09-06T08:15:57Z</time>
      </trkpt>
      <trkpt lat="45.30597" lon="0.42879">
        <ele>123</ele>
        <time>2015-09-06T08:16:06Z</time>
      </trkpt>
      <trkpt lat="45.30588" lon="0.42876">
        <ele>124</ele>
        <time>2015-09-06T08:16:10Z</time>
      </trkpt>
      <trkpt lat="45.3058" lon="0.42873">
        <ele>126</ele>
        <time>2015-09-06T08:16:21Z</time>
      </trkpt>
      <trkpt lat="45.30573" lon="0.42869">
        <ele>127</ele>
        <time>2015-09-06T08:16:29Z</time>
      </trkpt>
      <trkpt lat="45.30565" lon="0.42867">
        <ele>127</ele>
        <time>2015-09-06T08:16:33Z</time>
      </trkpt>
      <trkpt lat="45.30558" lon="0.42864">
        <ele>128</ele>
        <time>2015-09-06T08:16:40Z</time>
      </trkpt>
      <trkpt lat="45.30549" lon="0.42861">
        <ele>128</ele>
        <time>2015-09-06T08:16:46Z</time>
      </trkpt>
      <trkpt lat="45.30541" lon="0.42858">
        <ele>126</ele>
        <time>2015-09-06T08:16:54Z</time>
      </trkpt>
      <trkpt lat="45.30534" lon="0.4285">
        <ele>127</ele>
        <time>2015-09-06T08:17:04Z</time>
      </trkpt>
      <trkpt lat="45.30528" lon="0.42845">
        <ele>128</ele>
        <time>2015-09-06T08:17:15Z</time>
      </trkpt>
      <trkpt lat="45.3052" lon="0.4284">
        <ele>128</ele>
        <time>2015-09-06T08:17:21Z</time>
      </trkpt>
      <trkpt lat="45.30509" lon="0.42837">
        <ele>128</ele>
        <time>2015-09-06T08:17:25Z</time>
      </trkpt>
      <trkpt lat="45.30503" lon="0.4283">
        <ele>130</ele>
        <time>2015-09-06T08:17:34Z</time>
      </trkpt>
      <trkpt lat="45.30496" lon="0.42823">
        <ele>132</ele>
        <time>2015-09-06T08:17:41Z</time>
      </trkpt>
      <trkpt lat="45.30491" lon="0.42813">
        <ele>133</ele>
        <time>2015-09-06T08:17:48Z</time>
      </trkpt>
      <trkpt lat="45.30486" lon="0.42805">
        <ele>131</ele>
        <time>2015-09-06T08:17:54Z</time>
      </trkpt>
      <trkpt lat="45.30481" lon="0.42796">
        <ele>132</ele>
        <time>2015-09-06T08:18:00Z</time>
      </trkpt>
      <trkpt lat="45.30477" lon="0.42785">
        <ele>131</ele>
        <time>2015-09-06T08:18:04Z</time>
      </trkpt>
      <trkpt lat="45.30474" lon="0.42774">
        <ele>130</ele>
        <time>2015-09-06T08:18:10Z</time>
      </trkpt>
      <trkpt lat="45.30469" lon="0.42766">
        <ele>129</ele>
        <time>2015-09-06T08:18:16Z</time>
      </trkpt>
      <trkpt lat="45.30469" lon="0.42756">
        <ele>131</ele>
        <time>2015-09-06T08:18:21Z</time>
      </trkpt>
      <trkpt lat="45.30465" lon="0.42747">
        <ele>133</ele>
        <time>2015-09-06T08:18:26Z</time>
      </trkpt>
      <trkpt lat="45.30451" lon="0.42746">
        <ele>129</ele>
        <time>2015-09-06T08:18:30Z</time>
      </trkpt>
      <trkpt lat="45.30444" lon="0.4274">
        <ele>126</ele>
        <time>2015-09-06T08:18:36Z</time>
      </trkpt>
      <trkpt lat="45.30435" lon="0.42735">
        <ele>127</ele>
        <time>2015-09-06T08:18:41Z</time>
      </trkpt>
      <trkpt lat="45.3043" lon="0.4273">
        <ele>127</ele>
        <time>2015-09-06T08:18:48Z</time>
      </trkpt>
      <trkpt lat="45.30424" lon="0.42722">
        <ele>126</ele>
        <time>2015-09-06T08:18:54Z</time>
      </trkpt>
      <trkpt lat="45.30418" lon="0.42713">
        <ele>128</ele>
        <time>2015-09-06T08:19:01Z</time>
      </trkpt>
      <trkpt lat="45.30413" lon="0.42705">
        <ele>128</ele>
        <time>2015-09-06T08:19:07Z</time>
      </trkpt>
      <trkpt lat="45.30406" lon="0.42697">
        <ele>129</ele>
        <time>2015-09-06T08:19:12Z</time>
      </trkpt>
      <trkpt lat="45.30398" lon="0.42692">
        <ele>128</ele>
        <time>2015-09-06T08:19:16Z</time>
      </trkpt>
      <trkpt lat="45.30389" lon="0.42688">
        <ele>128</ele>
        <time>2015-09-06T08:19:21Z</time>
      </trkpt>
      <trkpt lat="45.30381" lon="0.42685">
        <ele>126</ele>
        <time>2015-09-06T08:19:28Z</time>
      </trkpt>
      <trkpt lat="45.30373" lon="0.42678">
        <ele>127</ele>
        <time>2015-09-06T08:19:33Z</time>
      </trkpt>
      <trkpt lat="45.30366" lon="0.42673">
        <ele>126</ele>
        <time>2015-09-06T08:19:37Z</time>
      </trkpt>
      <trkpt lat="45.30359" lon="0.42665">
        <ele>126</ele>
        <time>2015-09-06T08:19:42Z</time>
      </trkpt>
      <trkpt lat="45.30353" lon="0.42656">
        <ele>125</ele>
        <time>2015-09-06T08:19:47Z</time>
      </trkpt>
      <trkpt lat="45.30349" lon="0.42648">
        <ele>124</ele>
        <time>2015-09-06T08:19:51Z</time>
      </trkpt>
      <trkpt lat="45.30343" lon="0.42639">
        <ele>123</ele>
        <time>2015-09-06T08:19:56Z</time>
      </trkpt>
      <trkpt lat="45.30341" lon="0.42627">
        <ele>122</ele>
        <time>2015-09-06T08:20:01Z</time>
      </trkpt>
      <trkpt lat="45.30339" lon="0.42617">
        <ele>122</ele>
        <time>2015-09-06T08:20:06Z</time>
      </trkpt>
      <trkpt lat="45.30334" lon="0.42605">
        <ele>121</ele>
        <time>2015-09-06T08:20:13Z</time>
      </trkpt>
      <trkpt lat="45.30331" lon="0.42594">
        <ele>122</ele>
        <time>2015-09-06T08:20:21Z</time>
      </trkpt>
      <trkpt lat="45.30328" lon="0.42582">
        <ele>124</ele>
        <time>2015-09-06T08:20:28Z</time>
      </trkpt>
      <trkpt lat="45.30322" lon="0.42575">
        <ele>124</ele>
        <time>2015-09-06T08:20:34Z</time>
      </trkpt>
      <trkpt lat="45.30317" lon="0.42567">
        <ele>124</ele>
        <time>2015-09-06T08:20:40Z</time>
      </trkpt>
      <trkpt lat="45.30311" lon="0.4256">
        <ele>122</ele>
        <time>2015-09-06T08:20:45Z</time>
      </trkpt>
      <trkpt lat="45.30304" lon="0.42554">
        <ele>121</ele>
        <time>2015-09-06T08:20:50Z</time>
      </trkpt>
      <trkpt lat="45.30297" lon="0.42547">
        <ele>120</ele>
        <time>2015-09-06T08:20:56Z</time>
      </trkpt>
      <trkpt lat="45.30292" lon="0.42537">
        <ele>121</ele>
        <time>2015-09-06T08:21:05Z</time>
      </trkpt>
      <trkpt lat="45.30285" lon="0.42532">
        <ele>121</ele>
        <time>2015-09-06T08:21:11Z</time>
      </trkpt>
      <trkpt lat="45.30279" lon="0.42523">
        <ele>120</ele>
        <time>2015-09-06T08:21:17Z</time>
      </trkpt>
      <trkpt lat="45.30272" lon="0.42517">
        <ele>119</ele>
        <time>2015-09-06T08:21:29Z</time>
      </trkpt>
      <trkpt lat="45.30263" lon="0.42522">
        <ele>123</ele>
        <time>2015-09-06T08:21:47Z</time>
      </trkpt>
      <trkpt lat="45.30259" lon="0.4253">
        <ele>123</ele>
        <time>2015-09-06T08:21:52Z</time>
      </trkpt>
      <trkpt lat="45.30255" lon="0.42541">
        <ele>123</ele>
        <time>2015-09-06T08:21:57Z</time>
      </trkpt>
      <trkpt lat="45.30251" lon="0.42553">
        <ele>122</ele>
        <time>2015-09-06T08:22:01Z</time>
      </trkpt>
      <trkpt lat="45.30245" lon="0.4256">
        <ele>124</ele>
        <time>2015-09-06T08:22:06Z</time>
      </trkpt>
      <trkpt lat="45.30237" lon="0.42563">
        <ele>124</ele>
        <time>2015-09-06T08:22:12Z</time>
      </trkpt>
      <trkpt lat="45.30231" lon="0.42569">
        <ele>128</ele>
        <time>2015-09-06T08:22:19Z</time>
      </trkpt>
      <trkpt lat="45.30223" lon="0.42577">
        <ele>132</ele>
        <time>2015-09-06T08:22:25Z</time>
      </trkpt>
      <trkpt lat="45.30216" lon="0.42582">
        <ele>133</ele>
        <time>2015-09-06T08:22:29Z</time>
      </trkpt>
      <trkpt lat="45.30208" lon="0.42586">
        <ele>135</ele>
        <time>2015-09-06T08:22:37Z</time>
      </trkpt>
      <trkpt lat="45.30203" lon="0.42596">
        <ele>135</ele>
        <time>2015-09-06T08:22:42Z</time>
      </trkpt>
      <trkpt lat="45.30201" lon="0.42607">
        <ele>130</ele>
        <time>2015-09-06T08:22:49Z</time>
      </trkpt>
      <trkpt lat="45.30196" lon="0.42617">
        <ele>133</ele>
        <time>2015-09-06T08:24:30Z</time>
      </trkpt>
      <trkpt lat="45.30187" lon="0.42618">
        <ele>139</ele>
        <time>2015-09-06T08:24:36Z</time>
      </trkpt>
      <trkpt lat="45.30183" lon="0.42626">
        <ele>138</ele>
        <time>2015-09-06T08:24:50Z</time>
      </trkpt>
      <trkpt lat="45.30176" lon="0.4263">
        <ele>139</ele>
        <time>2015-09-06T08:24:54Z</time>
      </trkpt>
      <trkpt lat="45.30169" lon="0.4264">
        <ele>143</ele>
        <time>2015-09-06T08:24:59Z</time>
      </trkpt>
      <trkpt lat="45.30163" lon="0.42648">
        <ele>147</ele>
        <time>2015-09-06T08:25:05Z</time>
      </trkpt>
      <trkpt lat="45.3016" lon="0.42659">
        <ele>150</ele>
        <time>2015-09-06T08:25:12Z</time>
      </trkpt>
      <trkpt lat="45.30154" lon="0.42668">
        <ele>152</ele>
        <time>2015-09-06T08:25:18Z</time>
      </trkpt>
      <trkpt lat="45.3015" lon="0.42676">
        <ele>155</ele>
        <time>2015-09-06T08:25:26Z</time>
      </trkpt>
      <trkpt lat="45.30144" lon="0.42688">
        <ele>155</ele>
        <time>2015-09-06T08:25:31Z</time>
      </trkpt>
      <trkpt lat="45.30137" lon="0.42695">
        <ele>156</ele>
        <time>2015-09-06T08:25:37Z</time>
      </trkpt>
      <trkpt lat="45.30129" lon="0.42699">
        <ele>159</ele>
        <time>2015-09-06T08:25:45Z</time>
      </trkpt>
      <trkpt lat="45.30123" lon="0.42707">
        <ele>161</ele>
        <time>2015-09-06T08:25:51Z</time>
      </trkpt>
      <trkpt lat="45.30117" lon="0.42713">
        <ele>163</ele>
        <time>2015-09-06T08:25:56Z</time>
      </trkpt>
      <trkpt lat="45.3011" lon="0.42718">
        <ele>165</ele>
        <time>2015-09-06T08:26:01Z</time>
      </trkpt>
      <trkpt lat="45.30103" lon="0.42724">
        <ele>166</ele>
        <time>2015-09-06T08:26:06Z</time>
      </trkpt>
      <trkpt lat="45.30099" lon="0.42735">
        <ele>167</ele>
        <time>2015-09-06T08:26:12Z</time>
      </trkpt>
      <trkpt lat="45.30095" lon="0.42746">
        <ele>167</ele>
        <time>2015-09-06T08:26:18Z</time>
      </trkpt>
      <trkpt lat="45.30093" lon="0.42756">
        <ele>167</ele>
        <time>2015-09-06T08:26:24Z</time>
      </trkpt>
      <trkpt lat="45.3009" lon="0.42767">
        <ele>166</ele>
        <time>2015-09-06T08:26:29Z</time>
      </trkpt>
      <trkpt lat="45.30088" lon="0.42778">
        <ele>168</ele>
        <time>2015-09-06T08:26:36Z</time>
      </trkpt>
      <trkpt lat="45.30086" lon="0.42788">
        <ele>168</ele>
        <time>2015-09-06T08:26:41Z</time>
      </trkpt>
      <trkpt lat="45.30081" lon="0.42797">
        <ele>168</ele>
        <time>2015-09-06T08:26:48Z</time>
      </trkpt>
      <trkpt lat="45.30075" lon="0.42804">
        <ele>170</ele>
        <time>2015-09-06T08:26:55Z</time>
      </trkpt>
      <trkpt lat="45.3007" lon="0.42814">
        <ele>174</ele>
        <time>2015-09-06T08:27:03Z</time>
      </trkpt>
      <trkpt lat="45.30064" lon="0.42823">
        <ele>175</ele>
        <time>2015-09-06T08:27:09Z</time>
      </trkpt>
      <trkpt lat="45.30063" lon="0.42834">
        <ele>176</ele>
        <time>2015-09-06T08:27:14Z</time>
      </trkpt>
      <trkpt lat="45.30061" lon="0.42844">
        <ele>175</ele>
        <time>2015-09-06T08:27:19Z</time>
      </trkpt>
      <trkpt lat="45.3006" lon="0.42856">
        <ele>179</ele>
        <time>2015-09-06T08:27:25Z</time>
      </trkpt>
      <trkpt lat="45.30057" lon="0.42867">
        <ele>181</ele>
        <time>2015-09-06T08:27:33Z</time>
      </trkpt>
      <trkpt lat="45.30054" lon="0.42877">
        <ele>180</ele>
        <time>2015-09-06T08:27:40Z</time>
      </trkpt>
      <trkpt lat="45.30052" lon="0.42888">
        <ele>182</ele>
        <time>2015-09-06T08:27:46Z</time>
      </trkpt>
      <trkpt lat="45.30048" lon="0.42897">
        <ele>183</ele>
        <time>2015-09-06T08:27:52Z</time>
      </trkpt>
      <trkpt lat="45.30041" lon="0.42903">
        <ele>183</ele>
        <time>2015-09-06T08:27:57Z</time>
      </trkpt>
      <trkpt lat="45.30035" lon="0.42913">
        <ele>184</ele>
        <time>2015-09-06T08:28:05Z</time>
      </trkpt>
      <trkpt lat="45.3003" lon="0.42921">
        <ele>186</ele>
        <time>2015-09-06T08:28:11Z</time>
      </trkpt>
      <trkpt lat="45.30024" lon="0.4293">
        <ele>184</ele>
        <time>2015-09-06T08:28:17Z</time>
      </trkpt>
      <trkpt lat="45.30023" lon="0.42942">
        <ele>183</ele>
        <time>2015-09-06T08:28:23Z</time>
      </trkpt>
      <trkpt lat="45.3002" lon="0.42951">
        <ele>184</ele>
        <time>2015-09-06T08:28:28Z</time>
      </trkpt>
      <trkpt lat="45.30022" lon="0.42966">
        <ele>180</ele>
        <time>2015-09-06T08:28:32Z</time>
      </trkpt>
      <trkpt lat="45.30013" lon="0.42965">
        <ele>182</ele>
        <time>2015-09-06T08:28:39Z</time>
      </trkpt>
      <trkpt lat="45.30005" lon="0.42963">
        <ele>181</ele>
        <time>2015-09-06T08:28:45Z</time>
      </trkpt>
      <trkpt lat="45.29997" lon="0.42962">
        <ele>181</ele>
        <time>2015-09-06T08:28:49Z</time>
      </trkpt>
      <trkpt lat="45.2999" lon="0.42962">
        <ele>183</ele>
        <time>2015-09-06T08:28:54Z</time>
      </trkpt>
      <trkpt lat="45.29981" lon="0.4296">
        <ele>186</ele>
        <time>2015-09-06T08:29:01Z</time>
      </trkpt>
      <trkpt lat="45.29973" lon="0.4296">
        <ele>184</ele>
        <time>2015-09-06T08:29:07Z</time>
      </trkpt>
      <trkpt lat="45.29964" lon="0.42965">
        <ele>181</ele>
        <time>2015-09-06T08:29:12Z</time>
      </trkpt>
      <trkpt lat="45.29955" lon="0.42968">
        <ele>181</ele>
        <time>2015-09-06T08:29:17Z</time>
      </trkpt>
      <trkpt lat="45.29947" lon="0.4297">
        <ele>181</ele>
        <time>2015-09-06T08:29:24Z</time>
      </trkpt>
      <trkpt lat="45.29938" lon="0.4297">
        <ele>181</ele>
        <time>2015-09-06T08:29:33Z</time>
      </trkpt>
      <trkpt lat="45.2993" lon="0.42972">
        <ele>182</ele>
        <time>2015-09-06T08:29:39Z</time>
      </trkpt>
      <trkpt lat="45.29922" lon="0.42973">
        <ele>184</ele>
        <time>2015-09-06T08:29:44Z</time>
      </trkpt>
      <trkpt lat="45.29913" lon="0.42976">
        <ele>181</ele>
        <time>2015-09-06T08:29:50Z</time>
      </trkpt>
      <trkpt lat="45.29905" lon="0.4298">
        <ele>178</ele>
        <time>2015-09-06T08:29:55Z</time>
      </trkpt>
      <trkpt lat="45.29897" lon="0.42979">
        <ele>177</ele>
        <time>2015-09-06T08:30:00Z</time>
      </trkpt>
      <trkpt lat="45.29889" lon="0.42986">
        <ele>177</ele>
        <time>2015-09-06T08:30:07Z</time>
      </trkpt>
      <trkpt lat="45.29881" lon="0.42986">
        <ele>181</ele>
        <time>2015-09-06T08:30:13Z</time>
      </trkpt>
      <trkpt lat="45.29873" lon="0.42984">
        <ele>184</ele>
        <time>2015-09-06T08:30:21Z</time>
      </trkpt>
      <trkpt lat="45.29864" lon="0.42981">
        <ele>187</ele>
        <time>2015-09-06T08:30:27Z</time>
      </trkpt>
      <trkpt lat="45.29856" lon="0.42986">
        <ele>183</ele>
        <time>2015-09-06T08:30:33Z</time>
      </trkpt>
      <trkpt lat="45.29849" lon="0.42985">
        <ele>183</ele>
        <time>2015-09-06T08:30:39Z</time>
      </trkpt>
      <trkpt lat="45.29841" lon="0.42988">
        <ele>182</ele>
        <time>2015-09-06T08:30:45Z</time>
      </trkpt>
      <trkpt lat="45.29833" lon="0.42992">
        <ele>178</ele>
        <time>2015-09-06T08:30:50Z</time>
      </trkpt>
      <trkpt lat="45.29824" lon="0.42992">
        <ele>179</ele>
        <time>2015-09-06T08:30:56Z</time>
      </trkpt>
      <trkpt lat="45.29816" lon="0.42995">
        <ele>182</ele>
        <time>2015-09-06T08:31:06Z</time>
      </trkpt>
      <trkpt lat="45.29808" lon="0.42999">
        <ele>182</ele>
        <time>2015-09-06T08:31:15Z</time>
      </trkpt>
      <trkpt lat="45.29801" lon="0.42997">
        <ele>180</ele>
        <time>2015-09-06T08:31:20Z</time>
      </trkpt>
      <trkpt lat="45.29792" lon="0.42998">
        <ele>178</ele>
        <time>2015-09-06T08:31:25Z</time>
      </trkpt>
      <trkpt lat="45.29784" lon="0.42999">
        <ele>181</ele>
        <time>2015-09-06T08:31:31Z</time>
      </trkpt>
      <trkpt lat="45.2978" lon="0.4301">
        <ele>174</ele>
        <time>2015-09-06T08:31:39Z</time>
      </trkpt>
      <trkpt lat="45.29772" lon="0.43013">
        <ele>178</ele>
        <time>2015-09-06T08:37:19Z</time>
      </trkpt>
      <trkpt lat="45.29764" lon="0.43009">
        <ele>183</ele>
        <time>2015-09-06T08:37:29Z</time>
      </trkpt>
      <trkpt lat="45.29757" lon="0.43015">
        <ele>185</ele>
        <time>2015-09-06T08:37:43Z</time>
      </trkpt>
      <trkpt lat="45.29751" lon="0.43024">
        <ele>185</ele>
        <time>2015-09-06T08:37:55Z</time>
      </trkpt>
      <trkpt lat="45.29749" lon="0.43034">
        <ele>179</ele>
        <time>2015-09-06T08:38:03Z</time>
      </trkpt>
      <trkpt lat="45.29748" lon="0.43045">
        <ele>182</ele>
        <time>2015-09-06T08:38:25Z</time>
      </trkpt>
      <trkpt lat="45.29752" lon="0.43055">
        <ele>181</ele>
        <time>2015-09-06T08:41:01Z</time>
      </trkpt>
      <trkpt lat="45.29746" lon="0.43047">
        <ele>182</ele>
        <time>2015-09-06T08:53:46Z</time>
      </trkpt>
      <trkpt lat="45.29739" lon="0.43044">
        <ele>187</ele>
        <time>2015-09-06T08:54:00Z</time>
      </trkpt>
      <trkpt lat="45.29734" lon="0.43054">
        <ele>188</ele>
        <time>2015-09-06T08:54:10Z</time>
      </trkpt>
      <trkpt lat="45.29729" lon="0.43064">
        <ele>188</ele>
        <time>2015-09-06T08:54:16Z</time>
      </trkpt>
      <trkpt lat="45.29723" lon="0.43073">
        <ele>189</ele>
        <time>2015-09-06T08:54:24Z</time>
      </trkpt>
      <trkpt lat="45.29715" lon="0.43076">
        <ele>190</ele>
        <time>2015-09-06T08:54:29Z</time>
      </trkpt>
      <trkpt lat="45.2971" lon="0.43086">
        <ele>193</ele>
        <time>2015-09-06T08:54:41Z</time>
      </trkpt>
      <trkpt lat="45.2971" lon="0.43098">
        <ele>198</ele>
        <time>2015-09-06T08:54:49Z</time>
      </trkpt>
      <trkpt lat="45.29706" lon="0.43109">
        <ele>197</ele>
        <time>2015-09-06T08:54:59Z</time>
      </trkpt>
      <trkpt lat="45.29701" lon="0.43118">
        <ele>199</ele>
        <time>2015-09-06T08:55:11Z</time>
      </trkpt>
      <trkpt lat="45.29695" lon="0.43128">
        <ele>199</ele>
        <time>2015-09-06T08:55:23Z</time>
      </trkpt>
      <trkpt lat="45.2969" lon="0.43137">
        <ele>194</ele>
        <time>2015-09-06T08:55:29Z</time>
      </trkpt>
      <trkpt lat="45.29688" lon="0.43149">
        <ele>193</ele>
        <time>2015-09-06T08:55:36Z</time>
      </trkpt>
      <trkpt lat="45.29682" lon="0.43158">
        <ele>195</ele>
        <time>2015-09-06T08:55:43Z</time>
      </trkpt>
      <trkpt lat="45.29677" lon="0.43166">
        <ele>200</ele>
        <time>2015-09-06T08:55:51Z</time>
      </trkpt>
      <trkpt lat="45.29673" lon="0.43174">
        <ele>203</ele>
        <time>2015-09-06T08:55:58Z</time>
      </trkpt>
      <trkpt lat="45.29667" lon="0.43183">
        <ele>196</ele>
        <time>2015-09-06T08:56:05Z</time>
      </trkpt>
      <trkpt lat="45.29665" lon="0.43193">
        <ele>195</ele>
        <time>2015-09-06T08:56:11Z</time>
      </trkpt>
      <trkpt lat="45.29669" lon="0.43204">
        <ele>195</ele>
        <time>2015-09-06T08:56:16Z</time>
      </trkpt>
      <trkpt lat="45.29672" lon="0.43214">
        <ele>199</ele>
        <time>2015-09-06T08:56:22Z</time>
      </trkpt>
      <trkpt lat="45.29678" lon="0.43222">
        <ele>204</ele>
        <time>2015-09-06T08:56:28Z</time>
      </trkpt>
      <trkpt lat="45.29681" lon="0.43232">
        <ele>202</ele>
        <time>2015-09-06T08:56:33Z</time>
      </trkpt>
      <trkpt lat="45.29687" lon="0.43242">
        <ele>203</ele>
        <time>2015-09-06T08:56:40Z</time>
      </trkpt>
      <trkpt lat="45.29692" lon="0.43251">
        <ele>206</ele>
        <time>2015-09-06T08:56:47Z</time>
      </trkpt>
      <trkpt lat="45.29698" lon="0.43258">
        <ele>204</ele>
        <time>2015-09-06T08:56:52Z</time>
      </trkpt>
      <trkpt lat="45.29704" lon="0.43268">
        <ele>201</ele>
        <time>2015-09-06T08:56:57Z</time>
      </trkpt>
      <trkpt lat="45.29709" lon="0.43276">
        <ele>199</ele>
        <time>2015-09-06T08:57:02Z</time>
      </trkpt>
      <trkpt lat="45.29716" lon="0.43283">
        <ele>202</ele>
        <time>2015-09-06T08:57:09Z</time>
      </trkpt>
      <trkpt lat="45.29723" lon="0.4329">
        <ele>201</ele>
        <time>2015-09-06T08:57:15Z</time>
      </trkpt>
      <trkpt lat="45.29729" lon="0.43298">
        <ele>195</ele>
        <time>2015-09-06T08:57:22Z</time>
      </trkpt>
      <trkpt lat="45.29737" lon="0.43303">
        <ele>195</ele>
        <time>2015-09-06T08:57:29Z</time>
      </trkpt>
      <trkpt lat="45.29742" lon="0.43311">
        <ele>192</ele>
        <time>2015-09-06T08:57:42Z</time>
      </trkpt>
      <trkpt lat="45.29745" lon="0.43322">
        <ele>194</ele>
        <time>2015-09-06T08:57:48Z</time>
      </trkpt>
      <trkpt lat="45.29748" lon="0.43332">
        <ele>195</ele>
        <time>2015-09-06T08:57:57Z</time>
      </trkpt>
      <trkpt lat="45.29749" lon="0.43343">
        <ele>194</ele>
        <time>2015-09-06T08:58:09Z</time>
      </trkpt>
      <trkpt lat="45.29751" lon="0.43353">
        <ele>194</ele>
        <time>2015-09-06T08:58:13Z</time>
      </trkpt>
      <trkpt lat="45.29753" lon="0.43365">
        <ele>195</ele>
        <time>2015-09-06T08:58:18Z</time>
      </trkpt>
      <trkpt lat="45.29755" lon="0.43376">
        <ele>199</ele>
        <time>2015-09-06T08:58:24Z</time>
      </trkpt>
      <trkpt lat="45.29756" lon="0.43389">
        <ele>195</ele>
        <time>2015-09-06T08:58:30Z</time>
      </trkpt>
      <trkpt lat="45.29757" lon="0.43401">
        <ele>193</ele>
        <time>2015-09-06T08:58:36Z</time>
      </trkpt>
      <trkpt lat="45.29759" lon="0.43412">
        <ele>192</ele>
        <time>2015-09-06T08:58:43Z</time>
      </trkpt>
      <trkpt lat="45.29756" lon="0.43424">
        <ele>192</ele>
        <time>2015-09-06T08:58:52Z</time>
      </trkpt>
      <trkpt lat="45.29757" lon="0.43435">
        <ele>191</ele>
        <time>2015-09-06T08:58:59Z</time>
      </trkpt>
      <trkpt lat="45.29758" lon="0.43448">
        <ele>190</ele>
        <time>2015-09-06T08:59:06Z</time>
      </trkpt>
      <trkpt lat="45.29758" lon="0.43458">
        <ele>191</ele>
        <time>2015-09-06T08:59:12Z</time>
      </trkpt>
      <trkpt lat="45.29759" lon="0.43469">
        <ele>191</ele>
        <time>2015-09-06T08:59:18Z</time>
      </trkpt>
      <trkpt lat="45.2976" lon="0.43481">
        <ele>191</ele>
        <time>2015-09-06T08:59:24Z</time>
      </trkpt>
      <trkpt lat="45.29759" lon="0.43493">
        <ele>188</ele>
        <time>2015-09-06T08:59:30Z</time>
      </trkpt>
      <trkpt lat="45.29762" lon="0.43503">
        <ele>188</ele>
        <time>2015-09-06T08:59:35Z</time>
      </trkpt>
      <trkpt lat="45.2976" lon="0.43515">
        <ele>190</ele>
        <time>2015-09-06T08:59:42Z</time>
      </trkpt>
      <trkpt lat="45.29761" lon="0.43526">
        <ele>192</ele>
        <time>2015-09-06T08:59:50Z</time>
      </trkpt>
      <trkpt lat="45.2976" lon="0.43538">
        <ele>194</ele>
        <time>2015-09-06T08:59:59Z</time>
      </trkpt>
      <trkpt lat="45.29759" lon="0.4355">
        <ele>193</ele>
        <time>2015-09-06T09:00:06Z</time>
      </trkpt>
      <trkpt lat="45.29757" lon="0.43561">
        <ele>191</ele>
        <time>2015-09-06T09:00:12Z</time>
      </trkpt>
      <trkpt lat="45.29755" lon="0.43571">
        <ele>189</ele>
        <time>2015-09-06T09:00:18Z</time>
      </trkpt>
      <trkpt lat="45.29754" lon="0.43583">
        <ele>189</ele>
        <time>2015-09-06T09:00:24Z</time>
      </trkpt>
      <trkpt lat="45.29753" lon="0.43594">
        <ele>191</ele>
        <time>2015-09-06T09:00:31Z</time>
      </trkpt>
      <trkpt lat="45.2975" lon="0.43606">
        <ele>189</ele>
        <time>2015-09-06T09:00:38Z</time>
      </trkpt>
      <trkpt lat="45.29748" lon="0.43618">
        <ele>190</ele>
        <time>2015-09-06T09:00:45Z</time>
      </trkpt>
      <trkpt lat="45.29745" lon="0.43628">
        <ele>191</ele>
        <time>2015-09-06T09:00:52Z</time>
      </trkpt>
      <trkpt lat="45.29742" lon="0.43637">
        <ele>194</ele>
        <time>2015-09-06T09:01:00Z</time>
      </trkpt>
      <trkpt lat="45.29739" lon="0.43646">
        <ele>193</ele>
        <time>2015-09-06T09:01:06Z</time>
      </trkpt>
      <trkpt lat="45.29733" lon="0.43655">
        <ele>192</ele>
        <time>2015-09-06T09:01:12Z</time>
      </trkpt>
      <trkpt lat="45.29728" lon="0.43665">
        <ele>194</ele>
        <time>2015-09-06T09:01:19Z</time>
      </trkpt>
      <trkpt lat="45.29722" lon="0.43674">
        <ele>193</ele>
        <time>2015-09-06T09:01:28Z</time>
      </trkpt>
      <trkpt lat="45.29717" lon="0.43683">
        <ele>191</ele>
        <time>2015-09-06T09:01:34Z</time>
      </trkpt>
      <trkpt lat="45.29713" lon="0.43693">
        <ele>195</ele>
        <time>2015-09-06T09:01:40Z</time>
      </trkpt>
      <trkpt lat="45.29708" lon="0.43701">
        <ele>190</ele>
        <time>2015-09-06T09:01:45Z</time>
      </trkpt>
      <trkpt lat="45.29701" lon="0.4371">
        <ele>192</ele>
        <time>2015-09-06T09:01:52Z</time>
      </trkpt>
      <trkpt lat="45.29696" lon="0.43719">
        <ele>194</ele>
        <time>2015-09-06T09:01:59Z</time>
      </trkpt>
      <trkpt lat="45.2969" lon="0.43727">
        <ele>194</ele>
        <time>2015-09-06T09:02:05Z</time>
      </trkpt>
      <trkpt lat="45.29686" lon="0.43737">
        <ele>196</ele>
        <time>2015-09-06T09:02:14Z</time>
      </trkpt>
      <trkpt lat="45.29679" lon="0.43742">
        <ele>195</ele>
        <time>2015-09-06T09:02:19Z</time>
      </trkpt>
      <trkpt lat="45.29673" lon="0.4375">
        <ele>195</ele>
        <time>2015-09-06T09:02:27Z</time>
      </trkpt>
      <trkpt lat="45.29667" lon="0.4376">
        <ele>196</ele>
        <time>2015-09-06T09:02:34Z</time>
      </trkpt>
      <trkpt lat="45.29661" lon="0.43766">
        <ele>195</ele>
        <time>2015-09-06T09:02:40Z</time>
      </trkpt>
      <trkpt lat="45.29654" lon="0.43774">
        <ele>195</ele>
        <time>2015-09-06T09:02:46Z</time>
      </trkpt>
      <trkpt lat="45.29646" lon="0.4378">
        <ele>193</ele>
        <time>2015-09-06T09:02:52Z</time>
      </trkpt>
      <trkpt lat="45.29641" lon="0.4379">
        <ele>195</ele>
        <time>2015-09-06T09:03:00Z</time>
      </trkpt>
      <trkpt lat="45.29634" lon="0.43797">
        <ele>194</ele>
        <time>2015-09-06T09:03:07Z</time>
      </trkpt>
      <trkpt lat="45.29629" lon="0.43804">
        <ele>194</ele>
        <time>2015-09-06T09:03:13Z</time>
      </trkpt>
      <trkpt lat="45.29623" lon="0.43812">
        <ele>193</ele>
        <time>2015-09-06T09:03:18Z</time>
      </trkpt>
      <trkpt lat="45.29616" lon="0.4382">
        <ele>195</ele>
        <time>2015-09-06T09:03:27Z</time>
      </trkpt>
      <trkpt lat="45.2961" lon="0.43828">
        <ele>199</ele>
        <time>2015-09-06T09:03:34Z</time>
      </trkpt>
      <trkpt lat="45.29602" lon="0.43835">
        <ele>199</ele>
        <time>2015-09-06T09:03:40Z</time>
      </trkpt>
      <trkpt lat="45.29596" lon="0.43842">
        <ele>198</ele>
        <time>2015-09-06T09:03:46Z</time>
      </trkpt>
      <trkpt lat="45.2959" lon="0.43847">
        <ele>195</ele>
        <time>2015-09-06T09:03:53Z</time>
      </trkpt>
      <trkpt lat="45.29583" lon="0.43854">
        <ele>201</ele>
        <time>2015-09-06T09:04:04Z</time>
      </trkpt>
      <trkpt lat="45.29575" lon="0.43859">
        <ele>200</ele>
        <time>2015-09-06T09:04:11Z</time>
      </trkpt>
      <trkpt lat="45.29568" lon="0.43863">
        <ele>200</ele>
        <time>2015-09-06T09:04:17Z</time>
      </trkpt>
      <trkpt lat="45.2956" lon="0.43868">
        <ele>203</ele>
        <time>2015-09-06T09:04:25Z</time>
      </trkpt>
      <trkpt lat="45.29554" lon="0.43872">
        <ele>201</ele>
        <time>2015-09-06T09:04:33Z</time>
      </trkpt>
      <trkpt lat="45.29547" lon="0.43878">
        <ele>200</ele>
        <time>2015-09-06T09:04:38Z</time>
      </trkpt>
      <trkpt lat="45.2954" lon="0.43881">
        <ele>202</ele>
        <time>2015-09-06T09:04:44Z</time>
      </trkpt>
      <trkpt lat="45.29533" lon="0.43886">
        <ele>200</ele>
        <time>2015-09-06T09:04:49Z</time>
      </trkpt>
      <trkpt lat="45.29526" lon="0.43893">
        <ele>195</ele>
        <time>2015-09-06T09:04:55Z</time>
      </trkpt>
      <trkpt lat="45.29519" lon="0.43901">
        <ele>198</ele>
        <time>2015-09-06T09:05:03Z</time>
      </trkpt>
      <trkpt lat="45.29512" lon="0.43906">
        <ele>198</ele>
        <time>2015-09-06T09:05:10Z</time>
      </trkpt>
      <trkpt lat="45.29503" lon="0.4391">
        <ele>195</ele>
        <time>2015-09-06T09:05:21Z</time>
      </trkpt>
      <trkpt lat="45.29496" lon="0.43916">
        <ele>197</ele>
        <time>2015-09-06T09:05:30Z</time>
      </trkpt>
      <trkpt lat="45.29489" lon="0.43921">
        <ele>198</ele>
        <time>2015-09-06T09:05:40Z</time>
      </trkpt>
      <trkpt lat="45.29482" lon="0.43925">
        <ele>190</ele>
        <time>2015-09-06T09:05:46Z</time>
      </trkpt>
      <trkpt lat="45.29475" lon="0.43928">
        <ele>192</ele>
        <time>2015-09-06T09:05:51Z</time>
      </trkpt>
      <trkpt lat="45.29467" lon="0.43931">
        <ele>195</ele>
        <time>2015-09-06T09:05:58Z</time>
      </trkpt>
      <trkpt lat="45.29459" lon="0.43933">
        <ele>197</ele>
        <time>2015-09-06T09:06:04Z</time>
      </trkpt>
      <trkpt lat="45.29452" lon="0.43939">
        <ele>195</ele>
        <time>2015-09-06T09:06:11Z</time>
      </trkpt>
      <trkpt lat="45.29445" lon="0.43945">
        <ele>190</ele>
        <time>2015-09-06T09:06:20Z</time>
      </trkpt>
      <trkpt lat="45.29436" lon="0.43946">
        <ele>188</ele>
        <time>2015-09-06T09:06:25Z</time>
      </trkpt>
      <trkpt lat="45.2943" lon="0.43952">
        <ele>187</ele>
        <time>2015-09-06T09:06:30Z</time>
      </trkpt>
      <trkpt lat="45.29424" lon="0.4396">
        <ele>185</ele>
        <time>2015-09-06T09:06:37Z</time>
      </trkpt>
      <trkpt lat="45.29416" lon="0.43967">
        <ele>185</ele>
        <time>2015-09-06T09:06:47Z</time>
      </trkpt>
      <trkpt lat="45.29409" lon="0.4397">
        <ele>184</ele>
        <time>2015-09-06T09:06:53Z</time>
      </trkpt>
      <trkpt lat="45.29401" lon="0.43974">
        <ele>185</ele>
        <time>2015-09-06T09:06:59Z</time>
      </trkpt>
      <trkpt lat="45.29394" lon="0.43981">
        <ele>182</ele>
        <time>2015-09-06T09:07:04Z</time>
      </trkpt>
      <trkpt lat="45.29387" lon="0.43986">
        <ele>183</ele>
        <time>2015-09-06T09:07:13Z</time>
      </trkpt>
      <trkpt lat="45.29381" lon="0.43988">
        <ele>184</ele>
        <time>2015-09-06T09:07:19Z</time>
      </trkpt>
      <trkpt lat="45.29372" lon="0.43994">
        <ele>183</ele>
        <time>2015-09-06T09:07:27Z</time>
      </trkpt>
      <trkpt lat="45.29365" lon="0.44">
        <ele>182</ele>
        <time>2015-09-06T09:07:35Z</time>
      </trkpt>
      <trkpt lat="45.29358" lon="0.44008">
        <ele>179</ele>
        <time>2015-09-06T09:07:42Z</time>
      </trkpt>
      <trkpt lat="45.29354" lon="0.44017">
        <ele>178</ele>
        <time>2015-09-06T09:07:49Z</time>
      </trkpt>
      <trkpt lat="45.29346" lon="0.44025">
        <ele>179</ele>
        <time>2015-09-06T09:07:58Z</time>
      </trkpt>
      <trkpt lat="45.29339" lon="0.4403">
        <ele>181</ele>
        <time>2015-09-06T09:08:06Z</time>
      </trkpt>
      <trkpt lat="45.29333" lon="0.44037">
        <ele>180</ele>
        <time>2015-09-06T09:08:12Z</time>
      </trkpt>
      <trkpt lat="45.29327" lon="0.44046">
        <ele>179</ele>
        <time>2015-09-06T09:08:18Z</time>
      </trkpt>
      <trkpt lat="45.2932" lon="0.44051">
        <ele>178</ele>
        <time>2015-09-06T09:08:24Z</time>
      </trkpt>
      <trkpt lat="45.29318" lon="0.44061">
        <ele>177</ele>
        <time>2015-09-06T09:08:28Z</time>
      </trkpt>
      <trkpt lat="45.29315" lon="0.44072">
        <ele>175</ele>
        <time>2015-09-06T09:08:34Z</time>
      </trkpt>
      <trkpt lat="45.29311" lon="0.44082">
        <ele>173</ele>
        <time>2015-09-06T09:08:40Z</time>
      </trkpt>
      <trkpt lat="45.29309" lon="0.44093">
        <ele>172</ele>
        <time>2015-09-06T09:08:46Z</time>
      </trkpt>
      <trkpt lat="45.29307" lon="0.44105">
        <ele>172</ele>
        <time>2015-09-06T09:08:53Z</time>
      </trkpt>
      <trkpt lat="45.29301" lon="0.44113">
        <ele>173</ele>
        <time>2015-09-06T09:09:02Z</time>
      </trkpt>
      <trkpt lat="45.29293" lon="0.44115">
        <ele>172</ele>
        <time>2015-09-06T09:09:10Z</time>
      </trkpt>
      <trkpt lat="45.29286" lon="0.4412">
        <ele>173</ele>
        <time>2015-09-06T09:09:17Z</time>
      </trkpt>
      <trkpt lat="45.29279" lon="0.44125">
        <ele>173</ele>
        <time>2015-09-06T09:09:25Z</time>
      </trkpt>
      <trkpt lat="45.29271" lon="0.4413">
        <ele>173</ele>
        <time>2015-09-06T09:09:31Z</time>
      </trkpt>
      <trkpt lat="45.29264" lon="0.44134">
        <ele>173</ele>
        <time>2015-09-06T09:09:37Z</time>
      </trkpt>
      <trkpt lat="45.29256" lon="0.44138">
        <ele>172</ele>
        <time>2015-09-06T09:09:44Z</time>
      </trkpt>
      <trkpt lat="45.29249" lon="0.44145">
        <ele>172</ele>
        <time>2015-09-06T09:09:52Z</time>
      </trkpt>
      <trkpt lat="45.2924" lon="0.44148">
        <ele>170</ele>
        <time>2015-09-06T09:09:59Z</time>
      </trkpt>
      <trkpt lat="45.29232" lon="0.4415">
        <ele>171</ele>
        <time>2015-09-06T09:10:05Z</time>
      </trkpt>
      <trkpt lat="45.29224" lon="0.44149">
        <ele>170</ele>
        <time>2015-09-06T09:10:12Z</time>
      </trkpt>
      <trkpt lat="45.29215" lon="0.44146">
        <ele>172</ele>
        <time>2015-09-06T09:10:19Z</time>
      </trkpt>
      <trkpt lat="45.29207" lon="0.44142">
        <ele>173</ele>
        <time>2015-09-06T09:10:27Z</time>
      </trkpt>
      <trkpt lat="45.29199" lon="0.44137">
        <ele>176</ele>
        <time>2015-09-06T09:10:34Z</time>
      </trkpt>
      <trkpt lat="45.29191" lon="0.44134">
        <ele>176</ele>
        <time>2015-09-06T09:10:41Z</time>
      </trkpt>
      <trkpt lat="45.29183" lon="0.44136">
        <ele>175</ele>
        <time>2015-09-06T09:10:48Z</time>
      </trkpt>
      <trkpt lat="45.29178" lon="0.44145">
        <ele>170</ele>
        <time>2015-09-06T09:11:01Z</time>
      </trkpt>
      <trkpt lat="45.29175" lon="0.44161">
        <ele>164</ele>
        <time>2015-09-06T09:11:05Z</time>
      </trkpt>
      <trkpt lat="45.29177" lon="0.44171">
        <ele>164</ele>
        <time>2015-09-06T09:12:35Z</time>
      </trkpt>
      <trkpt lat="45.29177" lon="0.44182">
        <ele>156</ele>
        <time>2015-09-06T09:12:40Z</time>
      </trkpt>
      <trkpt lat="45.29178" lon="0.44194">
        <ele>163</ele>
        <time>2015-09-06T09:12:47Z</time>
      </trkpt>
      <trkpt lat="45.29181" lon="0.44206">
        <ele>167</ele>
        <time>2015-09-06T09:12:58Z</time>
      </trkpt>
      <trkpt lat="45.29181" lon="0.44218">
        <ele>175</ele>
        <time>2015-09-06T09:13:15Z</time>
      </trkpt>
      <trkpt lat="45.29184" lon="0.44228">
        <ele>170</ele>
        <time>2015-09-06T09:13:29Z</time>
      </trkpt>
      <trkpt lat="45.29187" lon="0.44239">
        <ele>168</ele>
        <time>2015-09-06T09:13:37Z</time>
      </trkpt>
      <trkpt lat="45.29186" lon="0.4425">
        <ele>170</ele>
        <time>2015-09-06T09:13:43Z</time>
      </trkpt>
      <trkpt lat="45.29185" lon="0.44263">
        <ele>170</ele>
        <time>2015-09-06T09:13:51Z</time>
      </trkpt>
      <trkpt lat="45.29183" lon="0.44275">
        <ele>179</ele>
        <time>2015-09-06T09:14:27Z</time>
      </trkpt>
      <trkpt lat="45.29179" lon="0.44286">
        <ele>182</ele>
        <time>2015-09-06T09:14:44Z</time>
      </trkpt>
      <trkpt lat="45.29173" lon="0.44295">
        <ele>168</ele>
        <time>2015-09-06T09:15:20Z</time>
      </trkpt>
      <trkpt lat="45.29165" lon="0.44299">
        <ele>164</ele>
        <time>2015-09-06T09:15:33Z</time>
      </trkpt>
      <trkpt lat="45.29157" lon="0.44302">
        <ele>162</ele>
        <time>2015-09-06T09:16:02Z</time>
      </trkpt>
      <trkpt lat="45.29151" lon="0.44311">
        <ele>158</ele>
        <time>2015-09-06T09:16:40Z</time>
      </trkpt>
      <trkpt lat="45.29159" lon="0.44314">
        <ele>161</ele>
        <time>2015-09-06T09:17:29Z</time>
      </trkpt>
      <trkpt lat="45.29167" lon="0.44311">
        <ele>156</ele>
        <time>2015-09-06T09:18:51Z</time>
      </trkpt>
      <trkpt lat="45.29174" lon="0.44305">
        <ele>161</ele>
        <time>2015-09-06T09:19:02Z</time>
      </trkpt>
      <trkpt lat="45.29182" lon="0.44298">
        <ele>164</ele>
        <time>2015-09-06T09:19:11Z</time>
      </trkpt>
      <trkpt lat="45.29185" lon="0.44288">
        <ele>164</ele>
        <time>2015-09-06T09:19:20Z</time>
      </trkpt>
      <trkpt lat="45.29188" lon="0.44277">
        <ele>162</ele>
        <time>2015-09-06T09:19:30Z</time>
      </trkpt>
      <trkpt lat="45.2919" lon="0.44265">
        <ele>162</ele>
        <time>2015-09-06T09:19:38Z</time>
      </trkpt>
      <trkpt lat="45.2919" lon="0.44253">
        <ele>163</ele>
        <time>2015-09-06T09:19:46Z</time>
      </trkpt>
      <trkpt lat="45.2919" lon="0.44241">
        <ele>163</ele>
        <time>2015-09-06T09:19:53Z</time>
      </trkpt>
      <trkpt lat="45.2919" lon="0.44229">
        <ele>163</ele>
        <time>2015-09-06T09:20:05Z</time>
      </trkpt>
      <trkpt lat="45.2919" lon="0.44217">
        <ele>163</ele>
        <time>2015-09-06T09:20:12Z</time>
      </trkpt>
      <trkpt lat="45.29188" lon="0.44205">
        <ele>165</ele>
        <time>2015-09-06T09:20:21Z</time>
      </trkpt>
      <trkpt lat="45.29188" lon="0.44194">
        <ele>161</ele>
        <time>2015-09-06T09:20:26Z</time>
      </trkpt>
      <trkpt lat="45.29186" lon="0.44184">
        <ele>167</ele>
        <time>2015-09-06T09:20:34Z</time>
      </trkpt>
      <trkpt lat="45.29182" lon="0.44174">
        <ele>170</ele>
        <time>2015-09-06T09:20:42Z</time>
      </trkpt>
      <trkpt lat="45.29177" lon="0.44164">
        <ele>173</ele>
        <time>2015-09-06T09:20:56Z</time>
      </trkpt>
      <trkpt lat="45.29179" lon="0.44154">
        <ele>170</ele>
        <time>2015-09-06T09:21:03Z</time>
      </trkpt>
      <trkpt lat="45.29178" lon="0.44142">
        <ele>168</ele>
        <time>2015-09-06T09:21:08Z</time>
      </trkpt>
      <trkpt lat="45.29178" lon="0.44131">
        <ele>168</ele>
        <time>2015-09-06T09:21:14Z</time>
      </trkpt>
      <trkpt lat="45.29173" lon="0.44123">
        <ele>169</ele>
        <time>2015-09-06T09:21:19Z</time>
      </trkpt>
      <trkpt lat="45.29169" lon="0.44112">
        <ele>171</ele>
        <time>2015-09-06T09:21:26Z</time>
      </trkpt>
      <trkpt lat="45.29161" lon="0.44106">
        <ele>171</ele>
        <time>2015-09-06T09:21:31Z</time>
      </trkpt>
      <trkpt lat="45.29155" lon="0.44101">
        <ele>173</ele>
        <time>2015-09-06T09:21:37Z</time>
      </trkpt>
      <trkpt lat="45.29151" lon="0.4409">
        <ele>170</ele>
        <time>2015-09-06T09:21:42Z</time>
      </trkpt>
      <trkpt lat="45.29146" lon="0.44082">
        <ele>169</ele>
        <time>2015-09-06T09:21:47Z</time>
      </trkpt>
      <trkpt lat="45.29142" lon="0.44073">
        <ele>164</ele>
        <time>2015-09-06T09:21:53Z</time>
      </trkpt>
      <trkpt lat="45.29136" lon="0.44065">
        <ele>163</ele>
        <time>2015-09-06T09:21:58Z</time>
      </trkpt>
      <trkpt lat="45.29129" lon="0.44057">
        <ele>163</ele>
        <time>2015-09-06T09:22:04Z</time>
      </trkpt>
      <trkpt lat="45.29122" lon="0.44052">
        <ele>162</ele>
        <time>2015-09-06T09:22:09Z</time>
      </trkpt>
      <trkpt lat="45.29116" lon="0.44045">
        <ele>163</ele>
        <time>2015-09-06T09:22:16Z</time>
      </trkpt>
      <trkpt lat="45.2911" lon="0.44036">
        <ele>166</ele>
        <time>2015-09-06T09:22:23Z</time>
      </trkpt>
      <trkpt lat="45.29103" lon="0.44031">
        <ele>166</ele>
        <time>2015-09-06T09:22:29Z</time>
      </trkpt>
      <trkpt lat="45.29094" lon="0.44027">
        <ele>165</ele>
        <time>2015-09-06T09:22:35Z</time>
      </trkpt>
      <trkpt lat="45.29087" lon="0.44021">
        <ele>165</ele>
        <time>2015-09-06T09:22:44Z</time>
      </trkpt>
      <trkpt lat="45.29079" lon="0.44019">
        <ele>164</ele>
        <time>2015-09-06T09:22:49Z</time>
      </trkpt>
      <trkpt lat="45.29071" lon="0.44019">
        <ele>163</ele>
        <time>2015-09-06T09:22:54Z</time>
      </trkpt>
      <trkpt lat="45.29063" lon="0.44019">
        <ele>161</ele>
        <time>2015-09-06T09:23:00Z</time>
      </trkpt>
      <trkpt lat="45.29055" lon="0.44018">
        <ele>161</ele>
        <time>2015-09-06T09:23:05Z</time>
      </trkpt>
      <trkpt lat="45.29047" lon="0.44018">
        <ele>161</ele>
        <time>2015-09-06T09:23:11Z</time>
      </trkpt>
      <trkpt lat="45.29039" lon="0.4402">
        <ele>159</ele>
        <time>2015-09-06T09:23:17Z</time>
      </trkpt>
      <trkpt lat="45.29032" lon="0.44021">
        <ele>158</ele>
        <time>2015-09-06T09:23:22Z</time>
      </trkpt>
      <trkpt lat="45.29024" lon="0.44025">
        <ele>158</ele>
        <time>2015-09-06T09:23:28Z</time>
      </trkpt>
      <trkpt lat="45.29017" lon="0.44031">
        <ele>158</ele>
        <time>2015-09-06T09:23:34Z</time>
      </trkpt>
      <trkpt lat="45.29011" lon="0.44038">
        <ele>155</ele>
        <time>2015-09-06T09:23:39Z</time>
      </trkpt>
      <trkpt lat="45.29005" lon="0.44047">
        <ele>155</ele>
        <time>2015-09-06T09:23:47Z</time>
      </trkpt>
      <trkpt lat="45.29002" lon="0.44059">
        <ele>152</ele>
        <time>2015-09-06T09:24:00Z</time>
      </trkpt>
      <trkpt lat="45.29004" lon="0.4407">
        <ele>149</ele>
        <time>2015-09-06T09:24:17Z</time>
      </trkpt>
      <trkpt lat="45.29009" lon="0.4408">
        <ele>148</ele>
        <time>2015-09-06T09:24:28Z</time>
      </trkpt>
      <trkpt lat="45.2901" lon="0.44091">
        <ele>148</ele>
        <time>2015-09-06T09:24:38Z</time>
      </trkpt>
      <trkpt lat="45.29007" lon="0.44102">
        <ele>148</ele>
        <time>2015-09-06T09:24:46Z</time>
      </trkpt>
      <trkpt lat="45.29001" lon="0.44111">
        <ele>150</ele>
        <time>2015-09-06T09:24:57Z</time>
      </trkpt>
      <trkpt lat="45.28994" lon="0.44117">
        <ele>152</ele>
        <time>2015-09-06T09:25:06Z</time>
      </trkpt>
      <trkpt lat="45.28986" lon="0.44122">
        <ele>152</ele>
        <time>2015-09-06T09:25:13Z</time>
      </trkpt>
      <trkpt lat="45.28979" lon="0.44127">
        <ele>151</ele>
        <time>2015-09-06T09:25:21Z</time>
      </trkpt>
      <trkpt lat="45.28972" lon="0.44134">
        <ele>150</ele>
        <time>2015-09-06T09:25:28Z</time>
      </trkpt>
      <trkpt lat="45.28964" lon="0.44137">
        <ele>150</ele>
        <time>2015-09-06T09:25:35Z</time>
      </trkpt>
      <trkpt lat="45.28956" lon="0.44142">
        <ele>150</ele>
        <time>2015-09-06T09:25:43Z</time>
      </trkpt>
      <trkpt lat="45.28949" lon="0.44149">
        <ele>150</ele>
        <time>2015-09-06T09:25:50Z</time>
      </trkpt>
      <trkpt lat="45.28942" lon="0.44154">
        <ele>153</ele>
        <time>2015-09-06T09:25:58Z</time>
      </trkpt>
      <trkpt lat="45.28937" lon="0.44165">
        <ele>150</ele>
        <time>2015-09-06T09:26:05Z</time>
      </trkpt>
      <trkpt lat="45.28936" lon="0.44177">
        <ele>148</ele>
        <time>2015-09-06T09:26:12Z</time>
      </trkpt>
      <trkpt lat="45.28933" lon="0.44187">
        <ele>144</ele>
        <time>2015-09-06T09:27:02Z</time>
      </trkpt>
      <trkpt lat="45.28928" lon="0.44197">
        <ele>143</ele>
        <time>2015-09-06T09:27:36Z</time>
      </trkpt>
      <trkpt lat="45.28927" lon="0.44208">
        <ele>141</ele>
        <time>2015-09-06T09:27:44Z</time>
      </trkpt>
      <trkpt lat="45.28924" lon="0.4422">
        <ele>141</ele>
        <time>2015-09-06T09:27:58Z</time>
      </trkpt>
      <trkpt lat="45.28922" lon="0.44232">
        <ele>139</ele>
        <time>2015-09-06T09:28:06Z</time>
      </trkpt>
      <trkpt lat="45.28921" lon="0.44243">
        <ele>140</ele>
        <time>2015-09-06T09:28:15Z</time>
      </trkpt>
      <trkpt lat="45.28918" lon="0.44253">
        <ele>136</ele>
        <time>2015-09-06T09:28:22Z</time>
      </trkpt>
      <trkpt lat="45.28916" lon="0.44265">
        <ele>134</ele>
        <time>2015-09-06T09:28:30Z</time>
      </trkpt>
      <trkpt lat="45.28914" lon="0.44277">
        <ele>133</ele>
        <time>2015-09-06T09:28:37Z</time>
      </trkpt>
      <trkpt lat="45.28912" lon="0.44289">
        <ele>133</ele>
        <time>2015-09-06T09:28:44Z</time>
      </trkpt>
      <trkpt lat="45.28912" lon="0.44301">
        <ele>132</ele>
        <time>2015-09-06T09:28:51Z</time>
      </trkpt>
      <trkpt lat="45.28911" lon="0.44312">
        <ele>129</ele>
        <time>2015-09-06T09:28:57Z</time>
      </trkpt>
      <trkpt lat="45.28908" lon="0.44323">
        <ele>130</ele>
        <time>2015-09-06T09:29:04Z</time>
      </trkpt>
      <trkpt lat="45.28906" lon="0.44335">
        <ele>129</ele>
        <time>2015-09-06T09:29:12Z</time>
      </trkpt>
      <trkpt lat="45.28902" lon="0.44347">
        <ele>129</ele>
        <time>2015-09-06T09:29:20Z</time>
      </trkpt>
      <trkpt lat="45.28899" lon="0.44358">
        <ele>128</ele>
        <time>2015-09-06T09:29:27Z</time>
      </trkpt>
      <trkpt lat="45.28897" lon="0.4437">
        <ele>126</ele>
        <time>2015-09-06T09:29:33Z</time>
      </trkpt>
      <trkpt lat="45.28896" lon="0.44381">
        <ele>128</ele>
        <time>2015-09-06T09:29:39Z</time>
      </trkpt>
      <trkpt lat="45.28894" lon="0.44392">
        <ele>126</ele>
        <time>2015-09-06T09:29:46Z</time>
      </trkpt>
      <trkpt lat="45.28893" lon="0.44404">
        <ele>126</ele>
        <time>2015-09-06T09:29:54Z</time>
      </trkpt>
      <trkpt lat="45.28889" lon="0.44415">
        <ele>124</ele>
        <time>2015-09-06T09:30:02Z</time>
      </trkpt>
      <trkpt lat="45.28886" lon="0.44427">
        <ele>123</ele>
        <time>2015-09-06T09:30:10Z</time>
      </trkpt>
      <trkpt lat="45.28885" lon="0.44439">
        <ele>121</ele>
        <time>2015-09-06T09:30:17Z</time>
      </trkpt>
      <trkpt lat="45.28884" lon="0.44451">
        <ele>120</ele>
        <time>2015-09-06T09:30:25Z</time>
      </trkpt>
      <trkpt lat="45.28884" lon="0.44462">
        <ele>119</ele>
        <time>2015-09-06T09:30:33Z</time>
      </trkpt>
      <trkpt lat="45.28883" lon="0.44474">
        <ele>118</ele>
        <time>2015-09-06T09:30:42Z</time>
      </trkpt>
      <trkpt lat="45.28884" lon="0.44486">
        <ele>118</ele>
        <time>2015-09-06T09:31:20Z</time>
      </trkpt>
      <trkpt lat="45.28883" lon="0.44499">
        <ele>117</ele>
        <time>2015-09-06T09:31:28Z</time>
      </trkpt>
      <trkpt lat="45.2888" lon="0.44511">
        <ele>115</ele>
        <time>2015-09-06T09:31:36Z</time>
      </trkpt>
      <trkpt lat="45.28879" lon="0.44523">
        <ele>115</ele>
        <time>2015-09-06T09:31:44Z</time>
      </trkpt>
      <trkpt lat="45.28875" lon="0.44534">
        <ele>110</ele>
        <time>2015-09-06T09:31:52Z</time>
      </trkpt>
      <trkpt lat="45.28874" lon="0.44546">
        <ele>109</ele>
        <time>2015-09-06T09:32:01Z</time>
      </trkpt>
      <trkpt lat="45.28873" lon="0.44558">
        <ele>109</ele>
        <time>2015-09-06T09:32:08Z</time>
      </trkpt>
      <trkpt lat="45.28869" lon="0.44568">
        <ele>108</ele>
        <time>2015-09-06T09:32:15Z</time>
      </trkpt>
      <trkpt lat="45.28867" lon="0.44579">
        <ele>108</ele>
        <time>2015-09-06T09:32:22Z</time>
      </trkpt>
      <trkpt lat="45.28864" lon="0.4459">
        <ele>108</ele>
        <time>2015-09-06T09:32:29Z</time>
      </trkpt>
      <trkpt lat="45.28861" lon="0.44601">
        <ele>107</ele>
        <time>2015-09-06T09:32:36Z</time>
      </trkpt>
      <trkpt lat="45.28858" lon="0.44612">
        <ele>106</ele>
        <time>2015-09-06T09:32:42Z</time>
      </trkpt>
      <trkpt lat="45.28854" lon="0.44622">
        <ele>104</ele>
        <time>2015-09-06T09:32:50Z</time>
      </trkpt>
      <trkpt lat="45.2885" lon="0.44632">
        <ele>106</ele>
        <time>2015-09-06T09:32:57Z</time>
      </trkpt>
      <trkpt lat="45.28845" lon="0.44641">
        <ele>105</ele>
        <time>2015-09-06T09:33:03Z</time>
      </trkpt>
      <trkpt lat="45.2884" lon="0.4465">
        <ele>104</ele>
        <time>2015-09-06T09:33:09Z</time>
      </trkpt>
      <trkpt lat="45.28831" lon="0.44653">
        <ele>103</ele>
        <time>2015-09-06T09:33:15Z</time>
      </trkpt>
      <trkpt lat="45.28823" lon="0.44656">
        <ele>103</ele>
        <time>2015-09-06T09:33:22Z</time>
      </trkpt>
      <trkpt lat="45.28815" lon="0.4466">
        <ele>103</ele>
        <time>2015-09-06T09:33:29Z</time>
      </trkpt>
      <trkpt lat="45.28807" lon="0.44663">
        <ele>105</ele>
        <time>2015-09-06T09:33:36Z</time>
      </trkpt>
      <trkpt lat="45.28801" lon="0.44671">
        <ele>107</ele>
        <time>2015-09-06T09:33:43Z</time>
      </trkpt>
      <trkpt lat="45.28794" lon="0.44679">
        <ele>108</ele>
        <time>2015-09-06T09:33:50Z</time>
      </trkpt>
      <trkpt lat="45.28786" lon="0.4468">
        <ele>107</ele>
        <time>2015-09-06T09:33:56Z</time>
      </trkpt>
      <trkpt lat="45.28779" lon="0.44686">
        <ele>109</ele>
        <time>2015-09-06T09:34:03Z</time>
      </trkpt>
      <trkpt lat="45.2877" lon="0.44688">
        <ele>109</ele>
        <time>2015-09-06T09:34:10Z</time>
      </trkpt>
      <trkpt lat="45.28763" lon="0.44694">
        <ele>109</ele>
        <time>2015-09-06T09:34:16Z</time>
      </trkpt>
      <trkpt lat="45.28755" lon="0.44696">
        <ele>111</ele>
        <time>2015-09-06T09:34:23Z</time>
      </trkpt>
      <trkpt lat="45.28748" lon="0.44701">
        <ele>112</ele>
        <time>2015-09-06T09:34:30Z</time>
      </trkpt>
      <trkpt lat="45.2874" lon="0.44707">
        <ele>115</ele>
        <time>2015-09-06T09:34:37Z</time>
      </trkpt>
      <trkpt lat="45.28733" lon="0.44715">
        <ele>113</ele>
        <time>2015-09-06T09:34:45Z</time>
      </trkpt>
      <trkpt lat="45.28725" lon="0.44714">
        <ele>118</ele>
        <time>2015-09-06T09:34:54Z</time>
      </trkpt>
      <trkpt lat="45.2872" lon="0.44722">
        <ele>118</ele>
        <time>2015-09-06T09:35:02Z</time>
      </trkpt>
      <trkpt lat="45.28717" lon="0.44734">
        <ele>114</ele>
        <time>2015-09-06T09:35:07Z</time>
      </trkpt>
      <trkpt lat="45.2871" lon="0.44741">
        <ele>108</ele>
        <time>2015-09-06T09:35:15Z</time>
      </trkpt>
      <trkpt lat="45.28704" lon="0.44748">
        <ele>103</ele>
        <time>2015-09-06T09:35:28Z</time>
      </trkpt>
      <trkpt lat="45.28697" lon="0.44742">
        <ele>101</ele>
        <time>2015-09-06T09:35:39Z</time>
      </trkpt>
      <trkpt lat="45.2869" lon="0.44736">
        <ele>101</ele>
        <time>2015-09-06T09:35:47Z</time>
      </trkpt>
      <trkpt lat="45.28685" lon="0.44728">
        <ele>100</ele>
        <time>2015-09-06T09:35:53Z</time>
      </trkpt>
      <trkpt lat="45.28676" lon="0.44723">
        <ele>99</ele>
        <time>2015-09-06T09:36:00Z</time>
      </trkpt>
      <trkpt lat="45.28669" lon="0.44718">
        <ele>99</ele>
        <time>2015-09-06T09:36:07Z</time>
      </trkpt>
      <trkpt lat="45.28661" lon="0.44712">
        <ele>98</ele>
        <time>2015-09-06T09:36:12Z</time>
      </trkpt>
      <trkpt lat="45.28654" lon="0.44705">
        <ele>99</ele>
        <time>2015-09-06T09:36:18Z</time>
      </trkpt>
      <trkpt lat="45.28647" lon="0.44698">
        <ele>100</ele>
        <time>2015-09-06T09:36:27Z</time>
      </trkpt>
      <trkpt lat="45.28641" lon="0.44693">
        <ele>102</ele>
        <time>2015-09-06T09:36:35Z</time>
      </trkpt>
      <trkpt lat="45.28634" lon="0.4469">
        <ele>101</ele>
        <time>2015-09-06T09:36:40Z</time>
      </trkpt>
      <trkpt lat="45.28626" lon="0.44686">
        <ele>100</ele>
        <time>2015-09-06T09:36:46Z</time>
      </trkpt>
      <trkpt lat="45.28619" lon="0.44682">
        <ele>101</ele>
        <time>2015-09-06T09:36:53Z</time>
      </trkpt>
      <trkpt lat="45.28611" lon="0.44678">
        <ele>99</ele>
        <time>2015-09-06T09:36:59Z</time>
      </trkpt>
      <trkpt lat="45.28604" lon="0.44671">
        <ele>100</ele>
        <time>2015-09-06T09:37:06Z</time>
      </trkpt>
      <trkpt lat="45.28596" lon="0.44666">
        <ele>99</ele>
        <time>2015-09-06T09:37:15Z</time>
      </trkpt>
      <trkpt lat="45.28589" lon="0.44662">
        <ele>100</ele>
        <time>2015-09-06T09:37:23Z</time>
      </trkpt>
      <trkpt lat="45.28581" lon="0.44658">
        <ele>100</ele>
        <time>2015-09-06T09:37:29Z</time>
      </trkpt>
      <trkpt lat="45.28575" lon="0.4465">
        <ele>99</ele>
        <time>2015-09-06T09:37:35Z</time>
      </trkpt>
      <trkpt lat="45.28567" lon="0.44647">
        <ele>99</ele>
        <time>2015-09-06T09:37:41Z</time>
      </trkpt>
      <trkpt lat="45.2856" lon="0.44641">
        <ele>100</ele>
        <time>2015-09-06T09:37:48Z</time>
      </trkpt>
      <trkpt lat="45.28554" lon="0.44635">
        <ele>99</ele>
        <time>2015-09-06T09:37:54Z</time>
      </trkpt>
      <trkpt lat="45.28547" lon="0.44633">
        <ele>99</ele>
        <time>2015-09-06T09:38:00Z</time>
      </trkpt>
      <trkpt lat="45.28539" lon="0.44627">
        <ele>99</ele>
        <time>2015-09-06T09:38:09Z</time>
      </trkpt>
      <trkpt lat="45.28532" lon="0.44621">
        <ele>99</ele>
        <time>2015-09-06T09:38:18Z</time>
      </trkpt>
      <trkpt lat="45.28524" lon="0.44617">
        <ele>101</ele>
        <time>2015-09-06T09:38:24Z</time>
      </trkpt>
      <trkpt lat="45.28518" lon="0.44611">
        <ele>100</ele>
        <time>2015-09-06T09:38:30Z</time>
      </trkpt>
      <trkpt lat="45.28512" lon="0.44602">
        <ele>99</ele>
        <time>2015-09-06T09:38:37Z</time>
      </trkpt>
      <trkpt lat="45.28506" lon="0.44595">
        <ele>102</ele>
        <time>2015-09-06T09:38:44Z</time>
      </trkpt>
      <trkpt lat="45.285" lon="0.44586">
        <ele>101</ele>
        <time>2015-09-06T09:38:51Z</time>
      </trkpt>
      <trkpt lat="45.28495" lon="0.44577">
        <ele>101</ele>
        <time>2015-09-06T09:38:58Z</time>
      </trkpt>
      <trkpt lat="45.2849" lon="0.44568">
        <ele>99</ele>
        <time>2015-09-06T09:39:07Z</time>
      </trkpt>
      <trkpt lat="45.28486" lon="0.44559">
        <ele>97</ele>
        <time>2015-09-06T09:39:22Z</time>
      </trkpt>
      <trkpt lat="45.2848" lon="0.44549">
        <ele>96</ele>
        <time>2015-09-06T09:39:30Z</time>
      </trkpt>
      <trkpt lat="45.28477" lon="0.44539">
        <ele>98</ele>
        <time>2015-09-06T09:39:37Z</time>
      </trkpt>
      <trkpt lat="45.28472" lon="0.44529">
        <ele>97</ele>
        <time>2015-09-06T09:39:44Z</time>
      </trkpt>
      <trkpt lat="45.28471" lon="0.44517">
        <ele>98</ele>
        <time>2015-09-06T09:39:51Z</time>
      </trkpt>
      <trkpt lat="45.28467" lon="0.44505">
        <ele>101</ele>
        <time>2015-09-06T09:40:00Z</time>
      </trkpt>
      <trkpt lat="45.28463" lon="0.44494">
        <ele>100</ele>
        <time>2015-09-06T09:40:07Z</time>
      </trkpt>
      <trkpt lat="45.28461" lon="0.44484">
        <ele>101</ele>
        <time>2015-09-06T09:40:14Z</time>
      </trkpt>
      <trkpt lat="45.28459" lon="0.44472">
        <ele>103</ele>
        <time>2015-09-06T09:40:21Z</time>
      </trkpt>
      <trkpt lat="45.28458" lon="0.4446">
        <ele>100</ele>
        <time>2015-09-06T09:40:28Z</time>
      </trkpt>
      <trkpt lat="45.28457" lon="0.44448">
        <ele>103</ele>
        <time>2015-09-06T09:40:35Z</time>
      </trkpt>
      <trkpt lat="45.28453" lon="0.44439">
        <ele>104</ele>
        <time>2015-09-06T09:40:47Z</time>
      </trkpt>
      <trkpt lat="45.28451" lon="0.44429">
        <ele>101</ele>
        <time>2015-09-06T09:40:56Z</time>
      </trkpt>
      <trkpt lat="45.28448" lon="0.44414">
        <ele>101</ele>
        <time>2015-09-06T09:41:01Z</time>
      </trkpt>
      <trkpt lat="45.28445" lon="0.44404">
        <ele>102</ele>
        <time>2015-09-06T09:41:07Z</time>
      </trkpt>
      <trkpt lat="45.28444" lon="0.44394">
        <ele>102</ele>
        <time>2015-09-06T09:41:11Z</time>
      </trkpt>
      <trkpt lat="45.2844" lon="0.44384">
        <ele>105</ele>
        <time>2015-09-06T09:41:17Z</time>
      </trkpt>
      <trkpt lat="45.28437" lon="0.44373">
        <ele>107</ele>
        <time>2015-09-06T09:41:22Z</time>
      </trkpt>
      <trkpt lat="45.28433" lon="0.4436">
        <ele>107</ele>
        <time>2015-09-06T09:41:27Z</time>
      </trkpt>
      <trkpt lat="45.28431" lon="0.44348">
        <ele>107</ele>
        <time>2015-09-06T09:41:33Z</time>
      </trkpt>
      <trkpt lat="45.28427" lon="0.44339">
        <ele>109</ele>
        <time>2015-09-06T09:41:40Z</time>
      </trkpt>
      <trkpt lat="45.28422" lon="0.44328">
        <ele>110</ele>
        <time>2015-09-06T09:41:48Z</time>
      </trkpt>
      <trkpt lat="45.28417" lon="0.44317">
        <ele>110</ele>
        <time>2015-09-06T09:41:57Z</time>
      </trkpt>
      <trkpt lat="45.28414" lon="0.44307">
        <ele>109</ele>
        <time>2015-09-06T09:42:04Z</time>
      </trkpt>
      <trkpt lat="45.28408" lon="0.44298">
        <ele>109</ele>
        <time>2015-09-06T09:42:10Z</time>
      </trkpt>
      <trkpt lat="45.28403" lon="0.4429">
        <ele>109</ele>
        <time>2015-09-06T09:42:16Z</time>
      </trkpt>
      <trkpt lat="45.28396" lon="0.44282">
        <ele>110</ele>
        <time>2015-09-06T09:42:27Z</time>
      </trkpt>
      <trkpt lat="45.28392" lon="0.44271">
        <ele>107</ele>
        <time>2015-09-06T09:43:06Z</time>
      </trkpt>
      <trkpt lat="45.28401" lon="0.44274">
        <ele>105</ele>
        <time>2015-09-06T09:44:29Z</time>
      </trkpt>
      <trkpt lat="45.28409" lon="0.44279">
        <ele>99</ele>
        <time>2015-09-06T09:44:39Z</time>
      </trkpt>
      <trkpt lat="45.28416" lon="0.44284">
        <ele>101</ele>
        <time>2015-09-06T09:44:45Z</time>
      </trkpt>
      <trkpt lat="45.28423" lon="0.44284">
        <ele>103</ele>
        <time>2015-09-06T09:44:57Z</time>
      </trkpt>
      <trkpt lat="45.2843" lon="0.44279">
        <ele>98</ele>
        <time>2015-09-06T09:45:07Z</time>
      </trkpt>
      <trkpt lat="45.28437" lon="0.44276">
        <ele>97</ele>
        <time>2015-09-06T09:45:13Z</time>
      </trkpt>
      <trkpt lat="45.28441" lon="0.44269">
        <ele>95</ele>
        <time>2015-09-06T09:45:18Z</time>
      </trkpt>
      <trkpt lat="45.28449" lon="0.44263">
        <ele>99</ele>
        <time>2015-09-06T09:45:22Z</time>
      </trkpt>
      <trkpt lat="45.28455" lon="0.44255">
        <ele>99</ele>
        <time>2015-09-06T09:45:31Z</time>
      </trkpt>
      <trkpt lat="45.28462" lon="0.4425">
        <ele>97</ele>
        <time>2015-09-06T09:45:40Z</time>
      </trkpt>
      <trkpt lat="45.28468" lon="0.44241">
        <ele>95</ele>
        <time>2015-09-06T09:45:47Z</time>
      </trkpt>
      <trkpt lat="45.28473" lon="0.44232">
        <ele>95</ele>
        <time>2015-09-06T09:45:55Z</time>
      </trkpt>
      <trkpt lat="45.28481" lon="0.44227">
        <ele>99</ele>
        <time>2015-09-06T09:46:02Z</time>
      </trkpt>
      <trkpt lat="45.28489" lon="0.44221">
        <ele>100</ele>
        <time>2015-09-06T09:46:07Z</time>
      </trkpt>
      <trkpt lat="45.28496" lon="0.44217">
        <ele>99</ele>
        <time>2015-09-06T09:46:18Z</time>
      </trkpt>
      <trkpt lat="45.28502" lon="0.44208">
        <ele>100</ele>
        <time>2015-09-06T09:46:26Z</time>
      </trkpt>
      <trkpt lat="45.2851" lon="0.44203">
        <ele>100</ele>
        <time>2015-09-06T09:46:32Z</time>
      </trkpt>
      <trkpt lat="45.28517" lon="0.442">
        <ele>104</ele>
        <time>2015-09-06T09:46:39Z</time>
      </trkpt>
      <trkpt lat="45.28525" lon="0.44195">
        <ele>108</ele>
        <time>2015-09-06T09:46:46Z</time>
      </trkpt>
      <trkpt lat="45.28533" lon="0.44189">
        <ele>108</ele>
        <time>2015-09-06T09:46:52Z</time>
      </trkpt>
      <trkpt lat="45.28539" lon="0.44181">
        <ele>110</ele>
        <time>2015-09-06T09:46:58Z</time>
      </trkpt>
      <trkpt lat="45.28545" lon="0.44171">
        <ele>108</ele>
        <time>2015-09-06T09:47:02Z</time>
      </trkpt>
      <trkpt lat="45.2855" lon="0.4416">
        <ele>109</ele>
        <time>2015-09-06T09:47:09Z</time>
      </trkpt>
      <trkpt lat="45.28551" lon="0.44149">
        <ele>109</ele>
        <time>2015-09-06T09:47:16Z</time>
      </trkpt>
      <trkpt lat="45.28551" lon="0.44136">
        <ele>110</ele>
        <time>2015-09-06T09:47:25Z</time>
      </trkpt>
      <trkpt lat="45.28552" lon="0.44124">
        <ele>109</ele>
        <time>2015-09-06T09:47:33Z</time>
      </trkpt>
      <trkpt lat="45.28548" lon="0.44112">
        <ele>111</ele>
        <time>2015-09-06T09:47:41Z</time>
      </trkpt>
      <trkpt lat="45.28545" lon="0.44101">
        <ele>116</ele>
        <time>2015-09-06T09:47:49Z</time>
      </trkpt>
      <trkpt lat="45.28542" lon="0.4409">
        <ele>113</ele>
        <time>2015-09-06T09:47:57Z</time>
      </trkpt>
      <trkpt lat="45.2854" lon="0.4408">
        <ele>118</ele>
        <time>2015-09-06T09:48:03Z</time>
      </trkpt>
      <trkpt lat="45.28537" lon="0.44068">
        <ele>121</ele>
        <time>2015-09-06T09:48:13Z</time>
      </trkpt>
      <trkpt lat="45.28537" lon="0.44057">
        <ele>121</ele>
        <time>2015-09-06T09:48:20Z</time>
      </trkpt>
      <trkpt lat="45.28532" lon="0.44047">
        <ele>121</ele>
        <time>2015-09-06T09:48:29Z</time>
      </trkpt>
      <trkpt lat="45.28531" lon="0.44035">
        <ele>122</ele>
        <time>2015-09-06T09:48:39Z</time>
      </trkpt>
      <trkpt lat="45.28531" lon="0.44024">
        <ele>123</ele>
        <time>2015-09-06T09:48:46Z</time>
      </trkpt>
      <trkpt lat="45.28527" lon="0.44014">
        <ele>123</ele>
        <time>2015-09-06T09:48:53Z</time>
      </trkpt>
      <trkpt lat="45.28526" lon="0.44002">
        <ele>142</ele>
        <time>2015-09-06T09:49:03Z</time>
      </trkpt>
      <trkpt lat="45.28525" lon="0.4399">
        <ele>131</ele>
        <time>2015-09-06T09:49:12Z</time>
      </trkpt>
      <trkpt lat="45.28521" lon="0.43978">
        <ele>131</ele>
        <time>2015-09-06T09:49:20Z</time>
      </trkpt>
      <trkpt lat="45.28523" lon="0.43966">
        <ele>133</ele>
        <time>2015-09-06T09:49:29Z</time>
      </trkpt>
      <trkpt lat="45.28522" lon="0.43953">
        <ele>132</ele>
        <time>2015-09-06T09:49:40Z</time>
      </trkpt>
      <trkpt lat="45.28521" lon="0.43941">
        <ele>132</ele>
        <time>2015-09-06T09:49:49Z</time>
      </trkpt>
      <trkpt lat="45.28519" lon="0.43929">
        <ele>129</ele>
        <time>2015-09-06T09:50:00Z</time>
      </trkpt>
      <trkpt lat="45.28518" lon="0.43917">
        <ele>131</ele>
        <time>2015-09-06T09:50:11Z</time>
      </trkpt>
      <trkpt lat="45.28515" lon="0.43906">
        <ele>133</ele>
        <time>2015-09-06T09:50:18Z</time>
      </trkpt>
      <trkpt lat="45.28514" lon="0.43893">
        <ele>135</ele>
        <time>2015-09-06T09:50:26Z</time>
      </trkpt>
      <trkpt lat="45.2851" lon="0.43881">
        <ele>134</ele>
        <time>2015-09-06T09:50:35Z</time>
      </trkpt>
      <trkpt lat="45.28509" lon="0.43869">
        <ele>134</ele>
        <time>2015-09-06T09:50:45Z</time>
      </trkpt>
      <trkpt lat="45.28505" lon="0.4386">
        <ele>134</ele>
        <time>2015-09-06T09:50:52Z</time>
      </trkpt>
      <trkpt lat="45.285" lon="0.43852">
        <ele>135</ele>
        <time>2015-09-06T09:50:58Z</time>
      </trkpt>
      <trkpt lat="45.285" lon="0.43841">
        <ele>132</ele>
        <time>2015-09-06T09:51:23Z</time>
      </trkpt>
      <trkpt lat="45.285" lon="0.4383">
        <ele>133</ele>
        <time>2015-09-06T09:51:29Z</time>
      </trkpt>
      <trkpt lat="45.285" lon="0.43819">
        <ele>128</ele>
        <time>2015-09-06T09:51:35Z</time>
      </trkpt>
      <trkpt lat="45.28497" lon="0.43807">
        <ele>132</ele>
        <time>2015-09-06T09:51:44Z</time>
      </trkpt>
      <trkpt lat="45.28491" lon="0.43798">
        <ele>129</ele>
        <time>2015-09-06T09:51:51Z</time>
      </trkpt>
      <trkpt lat="45.28488" lon="0.43786">
        <ele>134</ele>
        <time>2015-09-06T09:52:02Z</time>
      </trkpt>
      <trkpt lat="45.28491" lon="0.43776">
        <ele>137</ele>
        <time>2015-09-06T09:52:12Z</time>
      </trkpt>
      <trkpt lat="45.2849" lon="0.43764">
        <ele>134</ele>
        <time>2015-09-06T09:52:18Z</time>
      </trkpt>
      <trkpt lat="45.28492" lon="0.43753">
        <ele>134</ele>
        <time>2015-09-06T09:52:23Z</time>
      </trkpt>
      <trkpt lat="45.28492" lon="0.4374">
        <ele>134</ele>
        <time>2015-09-06T09:52:30Z</time>
      </trkpt>
      <trkpt lat="45.28495" lon="0.43729">
        <ele>133</ele>
        <time>2015-09-06T09:52:36Z</time>
      </trkpt>
      <trkpt lat="45.28495" lon="0.43718">
        <ele>133</ele>
        <time>2015-09-06T09:52:50Z</time>
      </trkpt>
      <trkpt lat="45.28493" lon="0.43705">
        <ele>134</ele>
        <time>2015-09-06T09:52:55Z</time>
      </trkpt>
      <trkpt lat="45.28491" lon="0.43692">
        <ele>135</ele>
        <time>2015-09-06T09:53:04Z</time>
      </trkpt>
      <trkpt lat="45.28486" lon="0.43682">
        <ele>136</ele>
        <time>2015-09-06T09:53:14Z</time>
      </trkpt>
      <trkpt lat="45.28487" lon="0.43671">
        <ele>137</ele>
        <time>2015-09-06T09:53:19Z</time>
      </trkpt>
      <trkpt lat="45.28491" lon="0.43661">
        <ele>134</ele>
        <time>2015-09-06T09:53:26Z</time>
      </trkpt>
      <trkpt lat="45.28486" lon="0.43651">
        <ele>136</ele>
        <time>2015-09-06T09:53:33Z</time>
      </trkpt>
      <trkpt lat="45.28487" lon="0.43639">
        <ele>138</ele>
        <time>2015-09-06T09:53:45Z</time>
      </trkpt>
      <trkpt lat="45.28484" lon="0.43629">
        <ele>139</ele>
        <time>2015-09-06T09:53:55Z</time>
      </trkpt>
      <trkpt lat="45.28481" lon="0.43617">
        <ele>143</ele>
        <time>2015-09-06T09:54:07Z</time>
      </trkpt>
      <trkpt lat="45.28485" lon="0.43607">
        <ele>143</ele>
        <time>2015-09-06T09:54:15Z</time>
      </trkpt>
      <trkpt lat="45.28484" lon="0.43594">
        <ele>144</ele>
        <time>2015-09-06T09:54:24Z</time>
      </trkpt>
      <trkpt lat="45.28483" lon="0.43583">
        <ele>145</ele>
        <time>2015-09-06T09:54:34Z</time>
      </trkpt>
      <trkpt lat="45.28481" lon="0.43572">
        <ele>143</ele>
        <time>2015-09-06T09:54:42Z</time>
      </trkpt>
      <trkpt lat="45.28481" lon="0.43561">
        <ele>146</ele>
        <time>2015-09-06T09:54:49Z</time>
      </trkpt>
      <trkpt lat="45.28481" lon="0.4355">
        <ele>145</ele>
        <time>2015-09-06T09:54:56Z</time>
      </trkpt>
      <trkpt lat="45.28483" lon="0.43538">
        <ele>147</ele>
        <time>2015-09-06T09:55:02Z</time>
      </trkpt>
      <trkpt lat="45.28481" lon="0.43526">
        <ele>146</ele>
        <time>2015-09-06T09:55:10Z</time>
      </trkpt>
      <trkpt lat="45.28478" lon="0.43516">
        <ele>150</ele>
        <time>2015-09-06T09:55:20Z</time>
      </trkpt>
      <trkpt lat="45.28478" lon="0.43504">
        <ele>148</ele>
        <time>2015-09-06T09:55:29Z</time>
      </trkpt>
      <trkpt lat="45.28477" lon="0.43492">
        <ele>148</ele>
        <time>2015-09-06T09:55:38Z</time>
      </trkpt>
      <trkpt lat="45.28475" lon="0.4348">
        <ele>148</ele>
        <time>2015-09-06T09:55:47Z</time>
      </trkpt>
      <trkpt lat="45.28471" lon="0.43472">
        <ele>148</ele>
        <time>2015-09-06T09:55:53Z</time>
      </trkpt>
      <trkpt lat="45.28471" lon="0.4346">
        <ele>148</ele>
        <time>2015-09-06T09:56:01Z</time>
      </trkpt>
      <trkpt lat="45.28469" lon="0.43448">
        <ele>147</ele>
        <time>2015-09-06T09:56:09Z</time>
      </trkpt>
      <trkpt lat="45.28469" lon="0.43437">
        <ele>145</ele>
        <time>2015-09-06T09:56:19Z</time>
      </trkpt>
      <trkpt lat="45.2847" lon="0.43425">
        <ele>147</ele>
        <time>2015-09-06T09:56:25Z</time>
      </trkpt>
      <trkpt lat="45.28468" lon="0.43415">
        <ele>150</ele>
        <time>2015-09-06T09:56:37Z</time>
      </trkpt>
      <trkpt lat="45.28469" lon="0.43402">
        <ele>149</ele>
        <time>2015-09-06T09:56:44Z</time>
      </trkpt>
      <trkpt lat="45.28466" lon="0.4339">
        <ele>149</ele>
        <time>2015-09-06T09:56:51Z</time>
      </trkpt>
      <trkpt lat="45.28468" lon="0.4338">
        <ele>147</ele>
        <time>2015-09-06T09:56:59Z</time>
      </trkpt>
      <trkpt lat="45.28466" lon="0.43369">
        <ele>151</ele>
        <time>2015-09-06T09:57:05Z</time>
      </trkpt>
      <trkpt lat="45.28467" lon="0.43356">
        <ele>151</ele>
        <time>2015-09-06T09:57:13Z</time>
      </trkpt>
      <trkpt lat="45.28465" lon="0.43344">
        <ele>152</ele>
        <time>2015-09-06T09:57:20Z</time>
      </trkpt>
      <trkpt lat="45.28468" lon="0.43332">
        <ele>154</ele>
        <time>2015-09-06T09:57:28Z</time>
      </trkpt>
      <trkpt lat="45.28463" lon="0.43323">
        <ele>155</ele>
        <time>2015-09-06T09:57:35Z</time>
      </trkpt>
      <trkpt lat="45.28461" lon="0.43311">
        <ele>158</ele>
        <time>2015-09-06T09:57:46Z</time>
      </trkpt>
      <trkpt lat="45.28458" lon="0.43302">
        <ele>158</ele>
        <time>2015-09-06T09:57:51Z</time>
      </trkpt>
      <trkpt lat="45.28459" lon="0.43289">
        <ele>158</ele>
        <time>2015-09-06T09:58:01Z</time>
      </trkpt>
      <trkpt lat="45.28455" lon="0.43284">
        <ele>156</ele>
        <time>2015-09-06T09:58:06Z</time>
      </trkpt>
      <trkpt lat="45.28451" lon="0.43274">
        <ele>158</ele>
        <time>2015-09-06T09:58:15Z</time>
      </trkpt>
      <trkpt lat="45.28443" lon="0.43268">
        <ele>161</ele>
        <time>2015-09-06T09:58:20Z</time>
      </trkpt>
      <trkpt lat="45.28436" lon="0.43263">
        <ele>160</ele>
        <time>2015-09-06T09:58:31Z</time>
      </trkpt>
      <trkpt lat="45.28426" lon="0.43254">
        <ele>161</ele>
        <time>2015-09-06T09:58:36Z</time>
      </trkpt>
      <trkpt lat="45.28417" lon="0.43249">
        <ele>159</ele>
        <time>2015-09-06T09:58:43Z</time>
      </trkpt>
      <trkpt lat="45.28411" lon="0.43242">
        <ele>159</ele>
        <time>2015-09-06T09:58:53Z</time>
      </trkpt>
      <trkpt lat="45.284" lon="0.43236">
        <ele>156</ele>
        <time>2015-09-06T09:58:57Z</time>
      </trkpt>
      <trkpt lat="45.28394" lon="0.43229">
        <ele>155</ele>
        <time>2015-09-06T09:59:04Z</time>
      </trkpt>
      <trkpt lat="45.28386" lon="0.43227">
        <ele>153</ele>
        <time>2015-09-06T09:59:10Z</time>
      </trkpt>
      <trkpt lat="45.28379" lon="0.43221">
        <ele>155</ele>
        <time>2015-09-06T09:59:17Z</time>
      </trkpt>
      <trkpt lat="45.2837" lon="0.43222">
        <ele>152</ele>
        <time>2015-09-06T09:59:25Z</time>
      </trkpt>
      <trkpt lat="45.28363" lon="0.43219">
        <ele>152</ele>
        <time>2015-09-06T09:59:32Z</time>
      </trkpt>
      <trkpt lat="45.28354" lon="0.43217">
        <ele>152</ele>
        <time>2015-09-06T09:59:39Z</time>
      </trkpt>
      <trkpt lat="45.28346" lon="0.43215">
        <ele>150</ele>
        <time>2015-09-06T09:59:48Z</time>
      </trkpt>
      <trkpt lat="45.28338" lon="0.43209">
        <ele>152</ele>
        <time>2015-09-06T09:59:55Z</time>
      </trkpt>
      <trkpt lat="45.2834" lon="0.43199">
        <ele>155</ele>
        <time>2015-09-06T10:00:09Z</time>
      </trkpt>
      <trkpt lat="45.28343" lon="0.43187">
        <ele>153</ele>
        <time>2015-09-06T10:00:15Z</time>
      </trkpt>
      <trkpt lat="45.28343" lon="0.43175">
        <ele>154</ele>
        <time>2015-09-06T10:00:23Z</time>
      </trkpt>
      <trkpt lat="45.28344" lon="0.43164">
        <ele>154</ele>
        <time>2015-09-06T10:00:30Z</time>
      </trkpt>
      <trkpt lat="45.28345" lon="0.43152">
        <ele>154</ele>
        <time>2015-09-06T10:00:38Z</time>
      </trkpt>
      <trkpt lat="45.28345" lon="0.43139">
        <ele>152</ele>
        <time>2015-09-06T10:00:46Z</time>
      </trkpt>
      <trkpt lat="45.28345" lon="0.43128">
        <ele>152</ele>
        <time>2015-09-06T10:00:53Z</time>
      </trkpt>
      <trkpt lat="45.28344" lon="0.43116">
        <ele>153</ele>
        <time>2015-09-06T10:01:01Z</time>
      </trkpt>
      <trkpt lat="45.28345" lon="0.43104">
        <ele>153</ele>
        <time>2015-09-06T10:01:09Z</time>
      </trkpt>
      <trkpt lat="45.28347" lon="0.43093">
        <ele>154</ele>
        <time>2015-09-06T10:01:17Z</time>
      </trkpt>
      <trkpt lat="45.28349" lon="0.4308">
        <ele>156</ele>
        <time>2015-09-06T10:01:25Z</time>
      </trkpt>
      <trkpt lat="45.28348" lon="0.43068">
        <ele>154</ele>
        <time>2015-09-06T10:01:33Z</time>
      </trkpt>
      <trkpt lat="45.2835" lon="0.43056">
        <ele>156</ele>
        <time>2015-09-06T10:01:41Z</time>
      </trkpt>
      <trkpt lat="45.28352" lon="0.43044">
        <ele>156</ele>
        <time>2015-09-06T10:01:51Z</time>
      </trkpt>
      <trkpt lat="45.28354" lon="0.43032">
        <ele>157</ele>
        <time>2015-09-06T10:01:59Z</time>
      </trkpt>
      <trkpt lat="45.28356" lon="0.43019">
        <ele>157</ele>
        <time>2015-09-06T10:02:07Z</time>
      </trkpt>
      <trkpt lat="45.28358" lon="0.43008">
        <ele>157</ele>
        <time>2015-09-06T10:02:13Z</time>
      </trkpt>
      <trkpt lat="45.28358" lon="0.42996">
        <ele>158</ele>
        <time>2015-09-06T10:02:21Z</time>
      </trkpt>
      <trkpt lat="45.28359" lon="0.42984">
        <ele>159</ele>
        <time>2015-09-06T10:02:28Z</time>
      </trkpt>
      <trkpt lat="45.2836" lon="0.42973">
        <ele>159</ele>
        <time>2015-09-06T10:02:35Z</time>
      </trkpt>
      <trkpt lat="45.28363" lon="0.42962">
        <ele>159</ele>
        <time>2015-09-06T10:02:42Z</time>
      </trkpt>
      <trkpt lat="45.28364" lon="0.42949">
        <ele>161</ele>
        <time>2015-09-06T10:02:50Z</time>
      </trkpt>
      <trkpt lat="45.28366" lon="0.42938">
        <ele>162</ele>
        <time>2015-09-06T10:02:59Z</time>
      </trkpt>
      <trkpt lat="45.28368" lon="0.42926">
        <ele>160</ele>
        <time>2015-09-06T10:03:06Z</time>
      </trkpt>
      <trkpt lat="45.2837" lon="0.42915">
        <ele>162</ele>
        <time>2015-09-06T10:03:13Z</time>
      </trkpt>
      <trkpt lat="45.28371" lon="0.42904">
        <ele>161</ele>
        <time>2015-09-06T10:03:19Z</time>
      </trkpt>
      <trkpt lat="45.28374" lon="0.42894">
        <ele>159</ele>
        <time>2015-09-06T10:03:26Z</time>
      </trkpt>
      <trkpt lat="45.28377" lon="0.42882">
        <ele>159</ele>
        <time>2015-09-06T10:03:34Z</time>
      </trkpt>
      <trkpt lat="45.28378" lon="0.4287">
        <ele>161</ele>
        <time>2015-09-06T10:03:42Z</time>
      </trkpt>
      <trkpt lat="45.2838" lon="0.42858">
        <ele>160</ele>
        <time>2015-09-06T10:03:48Z</time>
      </trkpt>
      <trkpt lat="45.28381" lon="0.42847">
        <ele>160</ele>
        <time>2015-09-06T10:03:56Z</time>
      </trkpt>
      <trkpt lat="45.28384" lon="0.42836">
        <ele>159</ele>
        <time>2015-09-06T10:04:02Z</time>
      </trkpt>
      <trkpt lat="45.28386" lon="0.42825">
        <ele>160</ele>
        <time>2015-09-06T10:04:08Z</time>
      </trkpt>
      <trkpt lat="45.28387" lon="0.42813">
        <ele>160</ele>
        <time>2015-09-06T10:04:16Z</time>
      </trkpt>
      <trkpt lat="45.28388" lon="0.428">
        <ele>165</ele>
        <time>2015-09-06T10:04:26Z</time>
      </trkpt>
      <trkpt lat="45.2839" lon="0.4279">
        <ele>165</ele>
        <time>2015-09-06T10:04:32Z</time>
      </trkpt>
      <trkpt lat="45.2839" lon="0.42777">
        <ele>168</ele>
        <time>2015-09-06T10:04:40Z</time>
      </trkpt>
      <trkpt lat="45.28394" lon="0.42767">
        <ele>166</ele>
        <time>2015-09-06T10:04:47Z</time>
      </trkpt>
      <trkpt lat="45.28395" lon="0.42756">
        <ele>165</ele>
        <time>2015-09-06T10:04:53Z</time>
      </trkpt>
      <trkpt lat="45.28398" lon="0.42744">
        <ele>164</ele>
        <time>2015-09-06T10:05:00Z</time>
      </trkpt>
      <trkpt lat="45.28399" lon="0.42733">
        <ele>164</ele>
        <time>2015-09-06T10:05:07Z</time>
      </trkpt>
      <trkpt lat="45.284" lon="0.42721">
        <ele>167</ele>
        <time>2015-09-06T10:05:17Z</time>
      </trkpt>
      <trkpt lat="45.28402" lon="0.4271">
        <ele>168</ele>
        <time>2015-09-06T10:05:25Z</time>
      </trkpt>
      <trkpt lat="45.28405" lon="0.427">
        <ele>170</ele>
        <time>2015-09-06T10:05:32Z</time>
      </trkpt>
      <trkpt lat="45.28407" lon="0.42688">
        <ele>172</ele>
        <time>2015-09-06T10:05:40Z</time>
      </trkpt>
      <trkpt lat="45.28408" lon="0.42675">
        <ele>177</ele>
        <time>2015-09-06T10:05:51Z</time>
      </trkpt>
      <trkpt lat="45.2841" lon="0.42664">
        <ele>175</ele>
        <time>2015-09-06T10:05:58Z</time>
      </trkpt>
      <trkpt lat="45.28409" lon="0.42652">
        <ele>175</ele>
        <time>2015-09-06T10:06:06Z</time>
      </trkpt>
      <trkpt lat="45.28411" lon="0.42642">
        <ele>173</ele>
        <time>2015-09-06T10:06:12Z</time>
      </trkpt>
      <trkpt lat="45.28413" lon="0.42629">
        <ele>171</ele>
        <time>2015-09-06T10:06:18Z</time>
      </trkpt>
      <trkpt lat="45.28415" lon="0.42618">
        <ele>171</ele>
        <time>2015-09-06T10:06:25Z</time>
      </trkpt>
      <trkpt lat="45.28419" lon="0.42608">
        <ele>173</ele>
        <time>2015-09-06T10:06:32Z</time>
      </trkpt>
      <trkpt lat="45.28421" lon="0.42595">
        <ele>174</ele>
        <time>2015-09-06T10:06:39Z</time>
      </trkpt>
      <trkpt lat="45.28422" lon="0.42584">
        <ele>176</ele>
        <time>2015-09-06T10:06:47Z</time>
      </trkpt>
      <trkpt lat="45.28425" lon="0.42572">
        <ele>175</ele>
        <time>2015-09-06T10:06:55Z</time>
      </trkpt>
      <trkpt lat="45.28427" lon="0.4256">
        <ele>176</ele>
        <time>2015-09-06T10:07:04Z</time>
      </trkpt>
      <trkpt lat="45.28429" lon="0.42548">
        <ele>177</ele>
        <time>2015-09-06T10:07:12Z</time>
      </trkpt>
      <trkpt lat="45.2843" lon="0.42536">
        <ele>177</ele>
        <time>2015-09-06T10:07:21Z</time>
      </trkpt>
      <trkpt lat="45.28435" lon="0.42526">
        <ele>180</ele>
        <time>2015-09-06T10:07:32Z</time>
      </trkpt>
      <trkpt lat="45.28437" lon="0.42514">
        <ele>181</ele>
        <time>2015-09-06T10:07:41Z</time>
      </trkpt>
      <trkpt lat="45.28441" lon="0.42505">
        <ele>183</ele>
        <time>2015-09-06T10:07:49Z</time>
      </trkpt>
      <trkpt lat="45.28445" lon="0.42494">
        <ele>182</ele>
        <time>2015-09-06T10:07:56Z</time>
      </trkpt>
      <trkpt lat="45.28448" lon="0.42483">
        <ele>181</ele>
        <time>2015-09-06T10:08:03Z</time>
      </trkpt>
      <trkpt lat="45.28452" lon="0.42473">
        <ele>182</ele>
        <time>2015-09-06T10:08:11Z</time>
      </trkpt>
      <trkpt lat="45.28457" lon="0.42462">
        <ele>181</ele>
        <time>2015-09-06T10:08:41Z</time>
      </trkpt>
      <trkpt lat="45.28461" lon="0.42451">
        <ele>180</ele>
        <time>2015-09-06T10:09:05Z</time>
      </trkpt>
      <trkpt lat="45.28465" lon="0.42441">
        <ele>178</ele>
        <time>2015-09-06T10:09:42Z</time>
      </trkpt>
      <trkpt lat="45.28469" lon="0.42431">
        <ele>175</ele>
        <time>2015-09-06T10:09:53Z</time>
      </trkpt>
      <trkpt lat="45.28473" lon="0.42421">
        <ele>174</ele>
        <time>2015-09-06T10:10:01Z</time>
      </trkpt>
      <trkpt lat="45.28477" lon="0.42411">
        <ele>171</ele>
        <time>2015-09-06T10:10:09Z</time>
      </trkpt>
      <trkpt lat="45.2848" lon="0.424">
        <ele>171</ele>
        <time>2015-09-06T10:10:20Z</time>
      </trkpt>
      <trkpt lat="45.28486" lon="0.42391">
        <ele>170</ele>
        <time>2015-09-06T10:10:27Z</time>
      </trkpt>
      <trkpt lat="45.2849" lon="0.4238">
        <ele>169</ele>
        <time>2015-09-06T10:10:34Z</time>
      </trkpt>
      <trkpt lat="45.28493" lon="0.42368">
        <ele>168</ele>
        <time>2015-09-06T10:10:42Z</time>
      </trkpt>
      <trkpt lat="45.28494" lon="0.42357">
        <ele>170</ele>
        <time>2015-09-06T10:10:49Z</time>
      </trkpt>
      <trkpt lat="45.28495" lon="0.42345">
        <ele>173</ele>
        <time>2015-09-06T10:10:57Z</time>
      </trkpt>
      <trkpt lat="45.28495" lon="0.42334">
        <ele>174</ele>
        <time>2015-09-06T10:11:04Z</time>
      </trkpt>
      <trkpt lat="45.28493" lon="0.42322">
        <ele>173</ele>
        <time>2015-09-06T10:11:11Z</time>
      </trkpt>
      <trkpt lat="45.28495" lon="0.42311">
        <ele>174</ele>
        <time>2015-09-06T10:11:18Z</time>
      </trkpt>
      <trkpt lat="45.28496" lon="0.423">
        <ele>176</ele>
        <time>2015-09-06T10:11:25Z</time>
      </trkpt>
      <trkpt lat="45.28497" lon="0.42288">
        <ele>176</ele>
        <time>2015-09-06T10:11:33Z</time>
      </trkpt>
      <trkpt lat="45.28498" lon="0.42276">
        <ele>180</ele>
        <time>2015-09-06T10:11:43Z</time>
      </trkpt>
      <trkpt lat="45.285" lon="0.42263">
        <ele>182</ele>
        <time>2015-09-06T10:11:50Z</time>
      </trkpt>
      <trkpt lat="45.285" lon="0.42251">
        <ele>181</ele>
        <time>2015-09-06T10:11:58Z</time>
      </trkpt>
      <trkpt lat="45.28497" lon="0.4224">
        <ele>178</ele>
        <time>2015-09-06T10:12:04Z</time>
      </trkpt>
      <trkpt lat="45.285" lon="0.42228">
        <ele>178</ele>
        <time>2015-09-06T10:12:12Z</time>
      </trkpt>
      <trkpt lat="45.28499" lon="0.42217">
        <ele>178</ele>
        <time>2015-09-06T10:12:19Z</time>
      </trkpt>
      <trkpt lat="45.285" lon="0.42206">
        <ele>179</ele>
        <time>2015-09-06T10:12:26Z</time>
      </trkpt>
      <trkpt lat="45.28504" lon="0.42198">
        <ele>178</ele>
        <time>2015-09-06T10:12:31Z</time>
      </trkpt>
      <trkpt lat="45.28502" lon="0.42183">
        <ele>175</ele>
        <time>2015-09-06T10:12:36Z</time>
      </trkpt>
      <trkpt lat="45.28505" lon="0.42173">
        <ele>174</ele>
        <time>2015-09-06T10:12:41Z</time>
      </trkpt>
      <trkpt lat="45.28509" lon="0.42163">
        <ele>176</ele>
        <time>2015-09-06T10:12:47Z</time>
      </trkpt>
      <trkpt lat="45.28511" lon="0.42151">
        <ele>174</ele>
        <time>2015-09-06T10:12:54Z</time>
      </trkpt>
      <trkpt lat="45.28513" lon="0.42139">
        <ele>174</ele>
        <time>2015-09-06T10:13:01Z</time>
      </trkpt>
      <trkpt lat="45.28514" lon="0.42129">
        <ele>173</ele>
        <time>2015-09-06T10:13:06Z</time>
      </trkpt>
      <trkpt lat="45.28515" lon="0.42117">
        <ele>171</ele>
        <time>2015-09-06T10:13:12Z</time>
      </trkpt>
      <trkpt lat="45.28517" lon="0.42105">
        <ele>172</ele>
        <time>2015-09-06T10:13:19Z</time>
      </trkpt>
      <trkpt lat="45.28519" lon="0.42094">
        <ele>171</ele>
        <time>2015-09-06T10:13:26Z</time>
      </trkpt>
      <trkpt lat="45.28521" lon="0.42083">
        <ele>171</ele>
        <time>2015-09-06T10:13:32Z</time>
      </trkpt>
      <trkpt lat="45.28523" lon="0.42072">
        <ele>171</ele>
        <time>2015-09-06T10:13:39Z</time>
      </trkpt>
      <trkpt lat="45.28526" lon="0.4206">
        <ele>172</ele>
        <time>2015-09-06T10:13:46Z</time>
      </trkpt>
      <trkpt lat="45.28526" lon="0.42047">
        <ele>170</ele>
        <time>2015-09-06T10:13:54Z</time>
      </trkpt>
      <trkpt lat="45.28529" lon="0.42036">
        <ele>169</ele>
        <time>2015-09-06T10:14:01Z</time>
      </trkpt>
      <trkpt lat="45.28534" lon="0.42025">
        <ele>167</ele>
        <time>2015-09-06T10:14:08Z</time>
      </trkpt>
      <trkpt lat="45.28539" lon="0.42016">
        <ele>165</ele>
        <time>2015-09-06T10:14:16Z</time>
      </trkpt>
      <trkpt lat="45.28544" lon="0.42007">
        <ele>164</ele>
        <time>2015-09-06T10:14:23Z</time>
      </trkpt>
      <trkpt lat="45.28549" lon="0.41998">
        <ele>163</ele>
        <time>2015-09-06T10:14:31Z</time>
      </trkpt>
      <trkpt lat="45.28555" lon="0.4199">
        <ele>163</ele>
        <time>2015-09-06T10:14:38Z</time>
      </trkpt>
      <trkpt lat="45.28561" lon="0.41981">
        <ele>163</ele>
        <time>2015-09-06T10:14:45Z</time>
      </trkpt>
      <trkpt lat="45.28567" lon="0.41972">
        <ele>162</ele>
        <time>2015-09-06T10:14:53Z</time>
      </trkpt>
      <trkpt lat="45.28572" lon="0.41963">
        <ele>162</ele>
        <time>2015-09-06T10:15:00Z</time>
      </trkpt>
      <trkpt lat="45.28577" lon="0.41953">
        <ele>160</ele>
        <time>2015-09-06T10:15:07Z</time>
      </trkpt>
      <trkpt lat="45.28582" lon="0.41945">
        <ele>160</ele>
        <time>2015-09-06T10:15:14Z</time>
      </trkpt>
      <trkpt lat="45.28588" lon="0.41937">
        <ele>160</ele>
        <time>2015-09-06T10:15:21Z</time>
      </trkpt>
      <trkpt lat="45.28593" lon="0.41928">
        <ele>160</ele>
        <time>2015-09-06T10:15:28Z</time>
      </trkpt>
      <trkpt lat="45.28599" lon="0.41919">
        <ele>159</ele>
        <time>2015-09-06T10:15:35Z</time>
      </trkpt>
      <trkpt lat="45.28604" lon="0.41912">
        <ele>159</ele>
        <time>2015-09-06T10:15:42Z</time>
      </trkpt>
      <trkpt lat="45.28611" lon="0.41904">
        <ele>159</ele>
        <time>2015-09-06T10:15:49Z</time>
      </trkpt>
      <trkpt lat="45.28617" lon="0.41896">
        <ele>159</ele>
        <time>2015-09-06T10:15:56Z</time>
      </trkpt>
      <trkpt lat="45.28623" lon="0.41888">
        <ele>159</ele>
        <time>2015-09-06T10:16:03Z</time>
      </trkpt>
      <trkpt lat="45.28629" lon="0.41879">
        <ele>159</ele>
        <time>2015-09-06T10:16:09Z</time>
      </trkpt>
      <trkpt lat="45.28634" lon="0.41871">
        <ele>160</ele>
        <time>2015-09-06T10:16:17Z</time>
      </trkpt>
      <trkpt lat="45.28639" lon="0.41862">
        <ele>163</ele>
        <time>2015-09-06T10:16:25Z</time>
      </trkpt>
      <trkpt lat="45.28644" lon="0.41852">
        <ele>163</ele>
        <time>2015-09-06T10:16:35Z</time>
      </trkpt>
      <trkpt lat="45.28652" lon="0.41845">
        <ele>161</ele>
        <time>2015-09-06T10:16:40Z</time>
      </trkpt>
      <trkpt lat="45.28658" lon="0.41837">
        <ele>161</ele>
        <time>2015-09-06T10:16:47Z</time>
      </trkpt>
      <trkpt lat="45.28665" lon="0.41829">
        <ele>158</ele>
        <time>2015-09-06T10:16:53Z</time>
      </trkpt>
      <trkpt lat="45.28669" lon="0.4182">
        <ele>155</ele>
        <time>2015-09-06T10:17:00Z</time>
      </trkpt>
      <trkpt lat="45.28674" lon="0.41811">
        <ele>155</ele>
        <time>2015-09-06T10:17:05Z</time>
      </trkpt>
      <trkpt lat="45.28682" lon="0.41807">
        <ele>153</ele>
        <time>2015-09-06T10:17:12Z</time>
      </trkpt>
      <trkpt lat="45.28687" lon="0.41798">
        <ele>155</ele>
        <time>2015-09-06T10:17:19Z</time>
      </trkpt>
      <trkpt lat="45.28695" lon="0.41794">
        <ele>155</ele>
        <time>2015-09-06T10:17:30Z</time>
      </trkpt>
      <trkpt lat="45.28703" lon="0.41787">
        <ele>155</ele>
        <time>2015-09-06T10:17:37Z</time>
      </trkpt>
      <trkpt lat="45.2871" lon="0.4178">
        <ele>158</ele>
        <time>2015-09-06T10:17:43Z</time>
      </trkpt>
      <trkpt lat="45.28717" lon="0.41775">
        <ele>159</ele>
        <time>2015-09-06T10:17:50Z</time>
      </trkpt>
      <trkpt lat="45.28724" lon="0.41768">
        <ele>158</ele>
        <time>2015-09-06T10:17:58Z</time>
      </trkpt>
      <trkpt lat="45.28731" lon="0.41759">
        <ele>160</ele>
        <time>2015-09-06T10:18:06Z</time>
      </trkpt>
      <trkpt lat="45.28737" lon="0.4175">
        <ele>161</ele>
        <time>2015-09-06T10:18:14Z</time>
      </trkpt>
      <trkpt lat="45.28742" lon="0.41744">
        <ele>157</ele>
        <time>2015-09-06T10:18:18Z</time>
      </trkpt>
      <trkpt lat="45.28748" lon="0.41736">
        <ele>156</ele>
        <time>2015-09-06T10:18:24Z</time>
      </trkpt>
      <trkpt lat="45.28754" lon="0.41727">
        <ele>156</ele>
        <time>2015-09-06T10:18:31Z</time>
      </trkpt>
      <trkpt lat="45.28761" lon="0.41721">
        <ele>155</ele>
        <time>2015-09-06T10:18:37Z</time>
      </trkpt>
      <trkpt lat="45.28766" lon="0.41714">
        <ele>156</ele>
        <time>2015-09-06T10:18:45Z</time>
      </trkpt>
      <trkpt lat="45.28772" lon="0.41705">
        <ele>156</ele>
        <time>2015-09-06T10:18:53Z</time>
      </trkpt>
      <trkpt lat="45.28778" lon="0.41696">
        <ele>152</ele>
        <time>2015-09-06T10:18:59Z</time>
      </trkpt>
      <trkpt lat="45.28782" lon="0.41685">
        <ele>152</ele>
        <time>2015-09-06T10:19:05Z</time>
      </trkpt>
      <trkpt lat="45.28784" lon="0.41674">
        <ele>152</ele>
        <time>2015-09-06T10:19:10Z</time>
      </trkpt>
      <trkpt lat="45.28784" lon="0.41664">
        <ele>149</ele>
        <time>2015-09-06T10:19:16Z</time>
      </trkpt>
      <trkpt lat="45.28785" lon="0.41653">
        <ele>151</ele>
        <time>2015-09-06T10:19:23Z</time>
      </trkpt>
      <trkpt lat="45.28785" lon="0.4164">
        <ele>147</ele>
        <time>2015-09-06T10:19:30Z</time>
      </trkpt>
      <trkpt lat="45.2878" lon="0.4163">
        <ele>146</ele>
        <time>2015-09-06T10:19:36Z</time>
      </trkpt>
      <trkpt lat="45.28778" lon="0.41619">
        <ele>148</ele>
        <time>2015-09-06T10:19:42Z</time>
      </trkpt>
      <trkpt lat="45.28774" lon="0.41608">
        <ele>149</ele>
        <time>2015-09-06T10:19:48Z</time>
      </trkpt>
      <trkpt lat="45.28771" lon="0.41598">
        <ele>150</ele>
        <time>2015-09-06T10:19:54Z</time>
      </trkpt>
      <trkpt lat="45.2877" lon="0.41586">
        <ele>152</ele>
        <time>2015-09-06T10:20:02Z</time>
      </trkpt>
      <trkpt lat="45.28769" lon="0.41573">
        <ele>152</ele>
        <time>2015-09-06T10:20:08Z</time>
      </trkpt>
      <trkpt lat="45.28768" lon="0.41562">
        <ele>154</ele>
        <time>2015-09-06T10:20:16Z</time>
      </trkpt>
      <trkpt lat="45.28764" lon="0.41549">
        <ele>149</ele>
        <time>2015-09-06T10:20:21Z</time>
      </trkpt>
      <trkpt lat="45.28762" lon="0.41537">
        <ele>151</ele>
        <time>2015-09-06T10:20:28Z</time>
      </trkpt>
      <trkpt lat="45.28764" lon="0.41525">
        <ele>144</ele>
        <time>2015-09-06T10:20:34Z</time>
      </trkpt>
      <trkpt lat="45.28762" lon="0.41514">
        <ele>144</ele>
        <time>2015-09-06T10:20:40Z</time>
      </trkpt>
      <trkpt lat="45.28765" lon="0.41502">
        <ele>145</ele>
        <time>2015-09-06T10:20:48Z</time>
      </trkpt>
      <trkpt lat="45.28764" lon="0.41489">
        <ele>149</ele>
        <time>2015-09-06T10:20:58Z</time>
      </trkpt>
      <trkpt lat="45.28767" lon="0.41478">
        <ele>150</ele>
        <time>2015-09-06T10:21:04Z</time>
      </trkpt>
      <trkpt lat="45.28771" lon="0.41469">
        <ele>148</ele>
        <time>2015-09-06T10:21:09Z</time>
      </trkpt>
      <trkpt lat="45.28773" lon="0.41458">
        <ele>148</ele>
        <time>2015-09-06T10:21:16Z</time>
      </trkpt>
      <trkpt lat="45.28775" lon="0.41446">
        <ele>150</ele>
        <time>2015-09-06T10:21:23Z</time>
      </trkpt>
      <trkpt lat="45.28779" lon="0.41436">
        <ele>153</ele>
        <time>2015-09-06T10:21:29Z</time>
      </trkpt>
      <trkpt lat="45.28781" lon="0.41425">
        <ele>153</ele>
        <time>2015-09-06T10:21:36Z</time>
      </trkpt>
      <trkpt lat="45.28784" lon="0.41414">
        <ele>151</ele>
        <time>2015-09-06T10:21:41Z</time>
      </trkpt>
      <trkpt lat="45.28787" lon="0.41404">
        <ele>148</ele>
        <time>2015-09-06T10:21:47Z</time>
      </trkpt>
      <trkpt lat="45.28791" lon="0.41395">
        <ele>146</ele>
        <time>2015-09-06T10:21:52Z</time>
      </trkpt>
      <trkpt lat="45.28797" lon="0.41386">
        <ele>145</ele>
        <time>2015-09-06T10:21:58Z</time>
      </trkpt>
      <trkpt lat="45.28801" lon="0.41376">
        <ele>144</ele>
        <time>2015-09-06T10:22:03Z</time>
      </trkpt>
      <trkpt lat="45.28805" lon="0.41366">
        <ele>142</ele>
        <time>2015-09-06T10:22:08Z</time>
      </trkpt>
      <trkpt lat="45.28808" lon="0.41355">
        <ele>142</ele>
        <time>2015-09-06T10:22:15Z</time>
      </trkpt>
      <trkpt lat="45.28811" lon="0.41344">
        <ele>143</ele>
        <time>2015-09-06T10:22:22Z</time>
      </trkpt>
      <trkpt lat="45.28815" lon="0.41333">
        <ele>143</ele>
        <time>2015-09-06T10:22:28Z</time>
      </trkpt>
      <trkpt lat="45.28816" lon="0.41322">
        <ele>142</ele>
        <time>2015-09-06T10:22:34Z</time>
      </trkpt>
      <trkpt lat="45.28821" lon="0.41311">
        <ele>140</ele>
        <time>2015-09-06T10:22:41Z</time>
      </trkpt>
      <trkpt lat="45.28824" lon="0.413">
        <ele>138</ele>
        <time>2015-09-06T10:22:48Z</time>
      </trkpt>
      <trkpt lat="45.28826" lon="0.41288">
        <ele>139</ele>
        <time>2015-09-06T10:22:55Z</time>
      </trkpt>
      <trkpt lat="45.28829" lon="0.41277">
        <ele>138</ele>
        <time>2015-09-06T10:23:04Z</time>
      </trkpt>
      <trkpt lat="45.28831" lon="0.41265">
        <ele>140</ele>
        <time>2015-09-06T10:23:11Z</time>
      </trkpt>
      <trkpt lat="45.28832" lon="0.41253">
        <ele>145</ele>
        <time>2015-09-06T10:23:19Z</time>
      </trkpt>
      <trkpt lat="45.28833" lon="0.41242">
        <ele>145</ele>
        <time>2015-09-06T10:23:26Z</time>
      </trkpt>
      <trkpt lat="45.28835" lon="0.4123">
        <ele>143</ele>
        <time>2015-09-06T10:23:33Z</time>
      </trkpt>
      <trkpt lat="45.28839" lon="0.4122">
        <ele>140</ele>
        <time>2015-09-06T10:23:39Z</time>
      </trkpt>
      <trkpt lat="45.2884" lon="0.41207">
        <ele>140</ele>
        <time>2015-09-06T10:23:46Z</time>
      </trkpt>
      <trkpt lat="45.28838" lon="0.41196">
        <ele>139</ele>
        <time>2015-09-06T10:23:56Z</time>
      </trkpt>
      <trkpt lat="45.28834" lon="0.41185">
        <ele>141</ele>
        <time>2015-09-06T10:24:02Z</time>
      </trkpt>
      <trkpt lat="45.28833" lon="0.41173">
        <ele>141</ele>
        <time>2015-09-06T10:24:12Z</time>
      </trkpt>
      <trkpt lat="45.28834" lon="0.41161">
        <ele>138</ele>
        <time>2015-09-06T10:24:24Z</time>
      </trkpt>
      <trkpt lat="45.2884" lon="0.41151">
        <ele>136</ele>
        <time>2015-09-06T10:24:33Z</time>
      </trkpt>
      <trkpt lat="45.28844" lon="0.41142">
        <ele>138</ele>
        <time>2015-09-06T10:24:43Z</time>
      </trkpt>
      <trkpt lat="45.28848" lon="0.4113">
        <ele>137</ele>
        <time>2015-09-06T10:24:53Z</time>
      </trkpt>
      <trkpt lat="45.28851" lon="0.41119">
        <ele>137</ele>
        <time>2015-09-06T10:25:14Z</time>
      </trkpt>
      <trkpt lat="45.28856" lon="0.41109">
        <ele>135</ele>
        <time>2015-09-06T10:25:27Z</time>
      </trkpt>
      <trkpt lat="45.28859" lon="0.41099">
        <ele>134</ele>
        <time>2015-09-06T10:26:34Z</time>
      </trkpt>
      <trkpt lat="45.28864" lon="0.41089">
        <ele>134</ele>
        <time>2015-09-06T10:26:57Z</time>
      </trkpt>
      <trkpt lat="45.28873" lon="0.41091">
        <ele>142</ele>
        <time>2015-09-06T10:27:12Z</time>
      </trkpt>
      <trkpt lat="45.28881" lon="0.41093">
        <ele>139</ele>
        <time>2015-09-06T10:27:40Z</time>
      </trkpt>
      <trkpt lat="45.28889" lon="0.41095">
        <ele>136</ele>
        <time>2015-09-06T10:28:08Z</time>
      </trkpt>
      <trkpt lat="45.28897" lon="0.411">
        <ele>139</ele>
        <time>2015-09-06T10:28:19Z</time>
      </trkpt>
      <trkpt lat="45.28905" lon="0.41105">
        <ele>138</ele>
        <time>2015-09-06T10:28:29Z</time>
      </trkpt>
      <trkpt lat="45.28913" lon="0.41109">
        <ele>138</ele>
        <time>2015-09-06T10:28:36Z</time>
      </trkpt>
      <trkpt lat="45.28921" lon="0.41113">
        <ele>138</ele>
        <time>2015-09-06T10:28:43Z</time>
      </trkpt>
      <trkpt lat="45.28928" lon="0.41118">
        <ele>140</ele>
        <time>2015-09-06T10:28:51Z</time>
      </trkpt>
      <trkpt lat="45.28936" lon="0.41124">
        <ele>141</ele>
        <time>2015-09-06T10:28:58Z</time>
      </trkpt>
      <trkpt lat="45.28944" lon="0.41129">
        <ele>139</ele>
        <time>2015-09-06T10:29:05Z</time>
      </trkpt>
      <trkpt lat="45.28952" lon="0.4113">
        <ele>136</ele>
        <time>2015-09-06T10:29:12Z</time>
      </trkpt>
      <trkpt lat="45.2896" lon="0.41134">
        <ele>135</ele>
        <time>2015-09-06T10:29:19Z</time>
      </trkpt>
      <trkpt lat="45.28967" lon="0.4114">
        <ele>131</ele>
        <time>2015-09-06T10:29:28Z</time>
      </trkpt>
      <trkpt lat="45.28974" lon="0.41146">
        <ele>130</ele>
        <time>2015-09-06T10:29:35Z</time>
      </trkpt>
      <trkpt lat="45.28981" lon="0.4115">
        <ele>127</ele>
        <time>2015-09-06T10:29:43Z</time>
      </trkpt>
      <trkpt lat="45.28988" lon="0.41156">
        <ele>129</ele>
        <time>2015-09-06T10:29:48Z</time>
      </trkpt>
      <trkpt lat="45.28996" lon="0.41161">
        <ele>127</ele>
        <time>2015-09-06T10:29:55Z</time>
      </trkpt>
      <trkpt lat="45.29004" lon="0.41165">
        <ele>126</ele>
        <time>2015-09-06T10:30:02Z</time>
      </trkpt>
      <trkpt lat="45.29012" lon="0.41165">
        <ele>125</ele>
        <time>2015-09-06T10:30:08Z</time>
      </trkpt>
      <trkpt lat="45.2902" lon="0.41166">
        <ele>125</ele>
        <time>2015-09-06T10:30:14Z</time>
      </trkpt>
      <trkpt lat="45.29029" lon="0.41165">
        <ele>126</ele>
        <time>2015-09-06T10:30:21Z</time>
      </trkpt>
      <trkpt lat="45.29038" lon="0.41167">
        <ele>125</ele>
        <time>2015-09-06T10:30:29Z</time>
      </trkpt>
      <trkpt lat="45.29046" lon="0.41163">
        <ele>126</ele>
        <time>2015-09-06T10:30:36Z</time>
      </trkpt>
      <trkpt lat="45.29054" lon="0.41165">
        <ele>127</ele>
        <time>2015-09-06T10:30:44Z</time>
      </trkpt>
      <trkpt lat="45.29062" lon="0.41164">
        <ele>126</ele>
        <time>2015-09-06T10:30:52Z</time>
      </trkpt>
      <trkpt lat="45.29069" lon="0.4117">
        <ele>131</ele>
        <time>2015-09-06T10:31:00Z</time>
      </trkpt>
      <trkpt lat="45.29078" lon="0.41169">
        <ele>130</ele>
        <time>2015-09-06T10:31:09Z</time>
      </trkpt>
      <trkpt lat="45.29086" lon="0.41166">
        <ele>126</ele>
        <time>2015-09-06T10:31:15Z</time>
      </trkpt>
      <trkpt lat="45.29094" lon="0.4117">
        <ele>128</ele>
        <time>2015-09-06T10:31:22Z</time>
      </trkpt>
      <trkpt lat="45.29103" lon="0.41161">
        <ele>124</ele>
        <time>2015-09-06T10:31:27Z</time>
      </trkpt>
      <trkpt lat="45.2911" lon="0.41164">
        <ele>123</ele>
        <time>2015-09-06T10:31:36Z</time>
      </trkpt>
      <trkpt lat="45.29117" lon="0.41166">
        <ele>122</ele>
        <time>2015-09-06T10:31:54Z</time>
      </trkpt>
      <trkpt lat="45.29127" lon="0.41167">
        <ele>121</ele>
        <time>2015-09-06T10:31:58Z</time>
      </trkpt>
      <trkpt lat="45.29137" lon="0.41167">
        <ele>116</ele>
        <time>2015-09-06T10:32:03Z</time>
      </trkpt>
      <trkpt lat="45.29144" lon="0.41171">
        <ele>115</ele>
        <time>2015-09-06T10:32:08Z</time>
      </trkpt>
      <trkpt lat="45.29154" lon="0.41175">
        <ele>112</ele>
        <time>2015-09-06T10:32:13Z</time>
      </trkpt>
      <trkpt lat="45.29162" lon="0.41178">
        <ele>110</ele>
        <time>2015-09-06T10:32:19Z</time>
      </trkpt>
      <trkpt lat="45.2917" lon="0.41183">
        <ele>110</ele>
        <time>2015-09-06T10:32:25Z</time>
      </trkpt>
      <trkpt lat="45.29178" lon="0.41186">
        <ele>108</ele>
        <time>2015-09-06T10:32:34Z</time>
      </trkpt>
      <trkpt lat="45.29186" lon="0.41189">
        <ele>107</ele>
        <time>2015-09-06T10:32:41Z</time>
      </trkpt>
      <trkpt lat="45.29194" lon="0.41191">
        <ele>106</ele>
        <time>2015-09-06T10:32:47Z</time>
      </trkpt>
      <trkpt lat="45.29201" lon="0.41193">
        <ele>107</ele>
        <time>2015-09-06T10:32:52Z</time>
      </trkpt>
      <trkpt lat="45.29209" lon="0.41195">
        <ele>107</ele>
        <time>2015-09-06T10:32:57Z</time>
      </trkpt>
      <trkpt lat="45.29216" lon="0.41199">
        <ele>108</ele>
        <time>2015-09-06T10:33:04Z</time>
      </trkpt>
      <trkpt lat="45.29224" lon="0.41201">
        <ele>108</ele>
        <time>2015-09-06T10:33:12Z</time>
      </trkpt>
      <trkpt lat="45.29233" lon="0.41205">
        <ele>106</ele>
        <time>2015-09-06T10:33:19Z</time>
      </trkpt>
      <trkpt lat="45.29241" lon="0.41207">
        <ele>105</ele>
        <time>2015-09-06T10:33:25Z</time>
      </trkpt>
      <trkpt lat="45.29249" lon="0.41212">
        <ele>105</ele>
        <time>2015-09-06T10:33:34Z</time>
      </trkpt>
      <trkpt lat="45.29257" lon="0.41211">
        <ele>104</ele>
        <time>2015-09-06T10:33:41Z</time>
      </trkpt>
      <trkpt lat="45.29263" lon="0.41203">
        <ele>103</ele>
        <time>2015-09-06T10:33:46Z</time>
      </trkpt>
      <trkpt lat="45.2927" lon="0.41196">
        <ele>102</ele>
        <time>2015-09-06T10:33:52Z</time>
      </trkpt>
      <trkpt lat="45.29276" lon="0.41188">
        <ele>102</ele>
        <time>2015-09-06T10:33:59Z</time>
      </trkpt>
      <trkpt lat="45.29282" lon="0.41181">
        <ele>102</ele>
        <time>2015-09-06T10:34:05Z</time>
      </trkpt>
      <trkpt lat="45.29288" lon="0.41174">
        <ele>102</ele>
        <time>2015-09-06T10:34:11Z</time>
      </trkpt>
      <trkpt lat="45.29294" lon="0.41165">
        <ele>103</ele>
        <time>2015-09-06T10:34:18Z</time>
      </trkpt>
      <trkpt lat="45.29301" lon="0.41158">
        <ele>104</ele>
        <time>2015-09-06T10:34:25Z</time>
      </trkpt>
      <trkpt lat="45.29308" lon="0.41151">
        <ele>104</ele>
        <time>2015-09-06T10:34:32Z</time>
      </trkpt>
      <trkpt lat="45.29314" lon="0.41144">
        <ele>102</ele>
        <time>2015-09-06T10:34:39Z</time>
      </trkpt>
      <trkpt lat="45.2932" lon="0.41135">
        <ele>102</ele>
        <time>2015-09-06T10:34:47Z</time>
      </trkpt>
      <trkpt lat="45.29326" lon="0.41127">
        <ele>101</ele>
        <time>2015-09-06T10:34:54Z</time>
      </trkpt>
      <trkpt lat="45.29332" lon="0.41119">
        <ele>102</ele>
        <time>2015-09-06T10:35:02Z</time>
      </trkpt>
      <trkpt lat="45.29338" lon="0.41111">
        <ele>103</ele>
        <time>2015-09-06T10:35:31Z</time>
      </trkpt>
      <trkpt lat="45.29344" lon="0.41104">
        <ele>105</ele>
        <time>2015-09-06T10:35:46Z</time>
      </trkpt>
      <trkpt lat="45.29347" lon="0.41093">
        <ele>97</ele>
        <time>2015-09-06T10:37:33Z</time>
      </trkpt>
      <trkpt lat="45.2935" lon="0.41082">
        <ele>97</ele>
        <time>2015-09-06T10:37:39Z</time>
      </trkpt>
      <trkpt lat="45.29356" lon="0.41072">
        <ele>97</ele>
        <time>2015-09-06T10:37:45Z</time>
      </trkpt>
      <trkpt lat="45.29363" lon="0.41065">
        <ele>100</ele>
        <time>2015-09-06T10:37:53Z</time>
      </trkpt>
      <trkpt lat="45.2937" lon="0.41059">
        <ele>101</ele>
        <time>2015-09-06T10:37:58Z</time>
      </trkpt>
      <trkpt lat="45.29378" lon="0.41059">
        <ele>102</ele>
        <time>2015-09-06T10:38:04Z</time>
      </trkpt>
      <trkpt lat="45.29386" lon="0.41056">
        <ele>103</ele>
        <time>2015-09-06T10:38:09Z</time>
      </trkpt>
      <trkpt lat="45.29392" lon="0.41049">
        <ele>103</ele>
        <time>2015-09-06T10:38:13Z</time>
      </trkpt>
      <trkpt lat="45.294" lon="0.4105">
        <ele>102</ele>
        <time>2015-09-06T10:38:18Z</time>
      </trkpt>
      <trkpt lat="45.29408" lon="0.41049">
        <ele>103</ele>
        <time>2015-09-06T10:38:26Z</time>
      </trkpt>
      <trkpt lat="45.29417" lon="0.4105">
        <ele>103</ele>
        <time>2015-09-06T10:38:44Z</time>
      </trkpt>
      <trkpt lat="45.29425" lon="0.41046">
        <ele>102</ele>
        <time>2015-09-06T10:38:59Z</time>
      </trkpt>
      <trkpt lat="45.29434" lon="0.41047">
        <ele>100</ele>
        <time>2015-09-06T10:39:28Z</time>
      </trkpt>
      <trkpt lat="45.29442" lon="0.4105">
        <ele>97</ele>
        <time>2015-09-06T10:39:47Z</time>
      </trkpt>
      <trkpt lat="45.29449" lon="0.41057">
        <ele>95</ele>
        <time>2015-09-06T10:40:00Z</time>
      </trkpt>
      <trkpt lat="45.29457" lon="0.41058">
        <ele>95</ele>
        <time>2015-09-06T10:40:14Z</time>
      </trkpt>
      <trkpt lat="45.29465" lon="0.41064">
        <ele>91</ele>
        <time>2015-09-06T10:40:34Z</time>
      </trkpt>
      <trkpt lat="45.29472" lon="0.41069">
        <ele>94</ele>
        <time>2015-09-06T10:40:46Z</time>
      </trkpt>
      <trkpt lat="45.29477" lon="0.4108">
        <ele>94</ele>
        <time>2015-09-06T10:40:54Z</time>
      </trkpt>
      <trkpt lat="45.29484" lon="0.41088">
        <ele>95</ele>
        <time>2015-09-06T10:41:01Z</time>
      </trkpt>
      <trkpt lat="45.29492" lon="0.41092">
        <ele>95</ele>
        <time>2015-09-06T10:41:08Z</time>
      </trkpt>
      <trkpt lat="45.29499" lon="0.41084">
        <ele>98</ele>
        <time>2015-09-06T10:41:14Z</time>
      </trkpt>
      <trkpt lat="45.29505" lon="0.41076">
        <ele>101</ele>
        <time>2015-09-06T10:41:22Z</time>
      </trkpt>
      <trkpt lat="45.29513" lon="0.41069">
        <ele>100</ele>
        <time>2015-09-06T10:41:32Z</time>
      </trkpt>
      <trkpt lat="45.29519" lon="0.41062">
        <ele>100</ele>
        <time>2015-09-06T10:41:43Z</time>
      </trkpt>
      <trkpt lat="45.29527" lon="0.41057">
        <ele>99</ele>
        <time>2015-09-06T10:41:54Z</time>
      </trkpt>
      <trkpt lat="45.29532" lon="0.41047">
        <ele>102</ele>
        <time>2015-09-06T10:42:03Z</time>
      </trkpt>
      <trkpt lat="45.29539" lon="0.41041">
        <ele>102</ele>
        <time>2015-09-06T10:42:10Z</time>
      </trkpt>
      <trkpt lat="45.29545" lon="0.41048">
        <ele>102</ele>
        <time>2015-09-06T10:42:45Z</time>
      </trkpt>
      <trkpt lat="45.29552" lon="0.41056">
        <ele>105</ele>
        <time>2015-09-06T10:42:52Z</time>
      </trkpt>
      <trkpt lat="45.2956" lon="0.41057">
        <ele>99</ele>
        <time>2015-09-06T10:43:03Z</time>
      </trkpt>
      <trkpt lat="45.29565" lon="0.41063">
        <ele>103</ele>
        <time>2015-09-06T10:43:10Z</time>
      </trkpt>
      <trkpt lat="45.29565" lon="0.41063">
        <ele>103</ele>
        <time>2015-09-06T10:43:11Z</time>
      </trkpt>
    </trkseg>
  </trk>
</gpx>